<?xml version="1.0" encoding="UTF-8" standalone="no" ?>
<gpx xmlns="http://www.topografix.com/GPX/1/1" xmlns:xsi="http://www.w3.org/2001/XMLSchema-instance" xsi:schemaLocation="http://www.topografix.com/GPX/1/1 http://www.topografix.com/GPX/1/1/gpx.xsd" version="1.1" creator="VisuGPX - https://www.visugpx.com">
  <metadata>
    <name>Roderen</name>
    <desc><![CDATA[marche populaire Roderen]]></desc>
  </metadata>
  <trk>
    <name><![CDATA[Roderen_1]]></name>
    <trkseg>
      <trkpt lat="47.77854" lon="7.09627">
        <ele>355.6</ele>
        <time>2015-07-19T08:14:57Z</time>
      </trkpt>
      <trkpt lat="47.77854" lon="7.09627">
        <ele>365.3</ele>
        <time>2015-07-19T08:14:59Z</time>
      </trkpt>
      <trkpt lat="47.77849" lon="7.09624">
        <ele>357</ele>
        <time>2015-07-19T08:15:28Z</time>
      </trkpt>
      <trkpt lat="47.77851" lon="7.0963">
        <ele>357</ele>
        <time>2015-07-19T08:15:31Z</time>
      </trkpt>
      <trkpt lat="47.77857" lon="7.09627">
        <ele>357</ele>
        <time>2015-07-19T08:15:37Z</time>
      </trkpt>
      <trkpt lat="47.77852" lon="7.09628">
        <ele>359</ele>
        <time>2015-07-19T08:16:06Z</time>
      </trkpt>
      <trkpt lat="47.77854" lon="7.09635">
        <ele>366.7</ele>
        <time>2015-07-19T08:16:32Z</time>
      </trkpt>
      <trkpt lat="47.77856" lon="7.09642">
        <ele>369</ele>
        <time>2015-07-19T08:17:06Z</time>
      </trkpt>
      <trkpt lat="47.77865" lon="7.09648">
        <ele>369</ele>
        <time>2015-07-19T08:17:12Z</time>
      </trkpt>
      <trkpt lat="47.77872" lon="7.0965">
        <ele>369</ele>
        <time>2015-07-19T08:17:20Z</time>
      </trkpt>
      <trkpt lat="47.7787" lon="7.0966">
        <ele>368.1</ele>
        <time>2015-07-19T08:17:28Z</time>
      </trkpt>
      <trkpt lat="47.77882" lon="7.09669">
        <ele>368</ele>
        <time>2015-07-19T08:17:38Z</time>
      </trkpt>
      <trkpt lat="47.77897" lon="7.09671">
        <ele>368</ele>
        <time>2015-07-19T08:17:51Z</time>
      </trkpt>
      <trkpt lat="47.77901" lon="7.09674">
        <ele>367</ele>
        <time>2015-07-19T08:17:54Z</time>
      </trkpt>
      <trkpt lat="47.77906" lon="7.09676">
        <ele>367</ele>
        <time>2015-07-19T08:17:58Z</time>
      </trkpt>
      <trkpt lat="47.77918" lon="7.09682">
        <ele>365</ele>
        <time>2015-07-19T08:18:09Z</time>
      </trkpt>
      <trkpt lat="47.7792" lon="7.09688">
        <ele>364.5</ele>
        <time>2015-07-19T08:18:14Z</time>
      </trkpt>
      <trkpt lat="47.77926" lon="7.09691">
        <ele>363.1</ele>
        <time>2015-07-19T08:18:20Z</time>
      </trkpt>
      <trkpt lat="47.77933" lon="7.09692">
        <ele>363</ele>
        <time>2015-07-19T08:18:27Z</time>
      </trkpt>
      <trkpt lat="47.77937" lon="7.09698">
        <ele>363</ele>
        <time>2015-07-19T08:18:30Z</time>
      </trkpt>
      <trkpt lat="47.77939" lon="7.09705">
        <ele>362.1</ele>
        <time>2015-07-19T08:18:33Z</time>
      </trkpt>
      <trkpt lat="47.77936" lon="7.09712">
        <ele>362</ele>
        <time>2015-07-19T08:18:36Z</time>
      </trkpt>
      <trkpt lat="47.77933" lon="7.09717">
        <ele>362</ele>
        <time>2015-07-19T08:18:39Z</time>
      </trkpt>
      <trkpt lat="47.7793" lon="7.09723">
        <ele>362</ele>
        <time>2015-07-19T08:18:42Z</time>
      </trkpt>
      <trkpt lat="47.77925" lon="7.09735">
        <ele>362</ele>
        <time>2015-07-19T08:18:49Z</time>
      </trkpt>
      <trkpt lat="47.77927" lon="7.09743">
        <ele>362</ele>
        <time>2015-07-19T08:19:00Z</time>
      </trkpt>
      <trkpt lat="47.77929" lon="7.09756">
        <ele>362</ele>
        <time>2015-07-19T08:19:05Z</time>
      </trkpt>
      <trkpt lat="47.77929" lon="7.09764">
        <ele>362</ele>
        <time>2015-07-19T08:19:09Z</time>
      </trkpt>
      <trkpt lat="47.77928" lon="7.09779">
        <ele>362</ele>
        <time>2015-07-19T08:19:16Z</time>
      </trkpt>
      <trkpt lat="47.77926" lon="7.09785">
        <ele>360</ele>
        <time>2015-07-19T08:19:27Z</time>
      </trkpt>
      <trkpt lat="47.77924" lon="7.09798">
        <ele>360</ele>
        <time>2015-07-19T08:19:33Z</time>
      </trkpt>
      <trkpt lat="47.77921" lon="7.09812">
        <ele>358.5</ele>
        <time>2015-07-19T08:19:40Z</time>
      </trkpt>
      <trkpt lat="47.7792" lon="7.09819">
        <ele>358</ele>
        <time>2015-07-19T08:19:43Z</time>
      </trkpt>
      <trkpt lat="47.77921" lon="7.09827">
        <ele>358</ele>
        <time>2015-07-19T08:19:46Z</time>
      </trkpt>
      <trkpt lat="47.77919" lon="7.09848">
        <ele>358</ele>
        <time>2015-07-19T08:19:55Z</time>
      </trkpt>
      <trkpt lat="47.77916" lon="7.09861">
        <ele>357</ele>
        <time>2015-07-19T08:20:07Z</time>
      </trkpt>
      <trkpt lat="47.77915" lon="7.09868">
        <ele>357</ele>
        <time>2015-07-19T08:20:11Z</time>
      </trkpt>
      <trkpt lat="47.77915" lon="7.09876">
        <ele>357</ele>
        <time>2015-07-19T08:20:15Z</time>
      </trkpt>
      <trkpt lat="47.77915" lon="7.09893">
        <ele>356.1</ele>
        <time>2015-07-19T08:20:21Z</time>
      </trkpt>
      <trkpt lat="47.77914" lon="7.099">
        <ele>356</ele>
        <time>2015-07-19T08:20:24Z</time>
      </trkpt>
      <trkpt lat="47.77913" lon="7.09915">
        <ele>355.5</ele>
        <time>2015-07-19T08:20:30Z</time>
      </trkpt>
      <trkpt lat="47.77912" lon="7.09926">
        <ele>355</ele>
        <time>2015-07-19T08:20:34Z</time>
      </trkpt>
      <trkpt lat="47.77907" lon="7.09921">
        <ele>355</ele>
        <time>2015-07-19T08:20:39Z</time>
      </trkpt>
      <trkpt lat="47.77903" lon="7.09916">
        <ele>355</ele>
        <time>2015-07-19T08:20:43Z</time>
      </trkpt>
      <trkpt lat="47.77898" lon="7.09922">
        <ele>354.1</ele>
        <time>2015-07-19T08:20:50Z</time>
      </trkpt>
      <trkpt lat="47.77897" lon="7.09942">
        <ele>354</ele>
        <time>2015-07-19T08:20:57Z</time>
      </trkpt>
      <trkpt lat="47.77894" lon="7.09948">
        <ele>354</ele>
        <time>2015-07-19T08:21:01Z</time>
      </trkpt>
      <trkpt lat="47.77893" lon="7.09955">
        <ele>354</ele>
        <time>2015-07-19T08:21:06Z</time>
      </trkpt>
      <trkpt lat="47.7789" lon="7.09961">
        <ele>354</ele>
        <time>2015-07-19T08:21:17Z</time>
      </trkpt>
      <trkpt lat="47.77888" lon="7.09983">
        <ele>354</ele>
        <time>2015-07-19T08:21:25Z</time>
      </trkpt>
      <trkpt lat="47.77886" lon="7.09992">
        <ele>354</ele>
        <time>2015-07-19T08:21:28Z</time>
      </trkpt>
      <trkpt lat="47.77882" lon="7.09994">
        <ele>354</ele>
        <time>2015-07-19T08:21:32Z</time>
      </trkpt>
      <trkpt lat="47.77877" lon="7.09996">
        <ele>354</ele>
        <time>2015-07-19T08:21:35Z</time>
      </trkpt>
      <trkpt lat="47.77871" lon="7.09995">
        <ele>354</ele>
        <time>2015-07-19T08:21:39Z</time>
      </trkpt>
      <trkpt lat="47.77867" lon="7.09992">
        <ele>354</ele>
        <time>2015-07-19T08:21:43Z</time>
      </trkpt>
      <trkpt lat="47.77862" lon="7.0999">
        <ele>354</ele>
        <time>2015-07-19T08:21:47Z</time>
      </trkpt>
      <trkpt lat="47.77858" lon="7.09986">
        <ele>354</ele>
        <time>2015-07-19T08:22:04Z</time>
      </trkpt>
      <trkpt lat="47.77856" lon="7.09978">
        <ele>355.5</ele>
        <time>2015-07-19T08:22:33Z</time>
      </trkpt>
      <trkpt lat="47.77851" lon="7.09978">
        <ele>356</ele>
        <time>2015-07-19T08:23:00Z</time>
      </trkpt>
      <trkpt lat="47.77857" lon="7.09981">
        <ele>356</ele>
        <time>2015-07-19T08:23:06Z</time>
      </trkpt>
      <trkpt lat="47.77848" lon="7.09976">
        <ele>349</ele>
        <time>2015-07-19T08:23:57Z</time>
      </trkpt>
      <trkpt lat="47.77845" lon="7.09964">
        <ele>349</ele>
        <time>2015-07-19T08:24:07Z</time>
      </trkpt>
      <trkpt lat="47.7784" lon="7.09965">
        <ele>349</ele>
        <time>2015-07-19T08:24:13Z</time>
      </trkpt>
      <trkpt lat="47.77835" lon="7.09965">
        <ele>349</ele>
        <time>2015-07-19T08:24:18Z</time>
      </trkpt>
      <trkpt lat="47.77831" lon="7.09959">
        <ele>349</ele>
        <time>2015-07-19T08:24:24Z</time>
      </trkpt>
      <trkpt lat="47.77826" lon="7.09957">
        <ele>346.5</ele>
        <time>2015-07-19T08:24:39Z</time>
      </trkpt>
      <trkpt lat="47.77822" lon="7.0996">
        <ele>345.3</ele>
        <time>2015-07-19T08:24:41Z</time>
      </trkpt>
      <trkpt lat="47.77817" lon="7.09959">
        <ele>345.3</ele>
        <time>2015-07-19T08:24:45Z</time>
      </trkpt>
      <trkpt lat="47.77807" lon="7.0996">
        <ele>344.1</ele>
        <time>2015-07-19T08:24:51Z</time>
      </trkpt>
      <trkpt lat="47.77803" lon="7.09959">
        <ele>344</ele>
        <time>2015-07-19T08:24:55Z</time>
      </trkpt>
      <trkpt lat="47.77798" lon="7.09958">
        <ele>343.3</ele>
        <time>2015-07-19T08:24:59Z</time>
      </trkpt>
      <trkpt lat="47.77788" lon="7.09954">
        <ele>343</ele>
        <time>2015-07-19T08:25:10Z</time>
      </trkpt>
      <trkpt lat="47.77787" lon="7.09946">
        <ele>343</ele>
        <time>2015-07-19T08:25:15Z</time>
      </trkpt>
      <trkpt lat="47.77789" lon="7.09938">
        <ele>343</ele>
        <time>2015-07-19T08:25:20Z</time>
      </trkpt>
      <trkpt lat="47.77788" lon="7.09922">
        <ele>343.9</ele>
        <time>2015-07-19T08:25:28Z</time>
      </trkpt>
      <trkpt lat="47.77786" lon="7.09906">
        <ele>344</ele>
        <time>2015-07-19T08:25:34Z</time>
      </trkpt>
      <trkpt lat="47.77784" lon="7.099">
        <ele>345.5</ele>
        <time>2015-07-19T08:25:37Z</time>
      </trkpt>
      <trkpt lat="47.7778" lon="7.09893">
        <ele>345.5</ele>
        <time>2015-07-19T08:25:40Z</time>
      </trkpt>
      <trkpt lat="47.77778" lon="7.09886">
        <ele>346</ele>
        <time>2015-07-19T08:25:44Z</time>
      </trkpt>
      <trkpt lat="47.77783" lon="7.09866">
        <ele>346.9</ele>
        <time>2015-07-19T08:25:58Z</time>
      </trkpt>
      <trkpt lat="47.77785" lon="7.09858">
        <ele>347</ele>
        <time>2015-07-19T08:26:02Z</time>
      </trkpt>
      <trkpt lat="47.77788" lon="7.09844">
        <ele>350.8</ele>
        <time>2015-07-19T08:26:11Z</time>
      </trkpt>
      <trkpt lat="47.77791" lon="7.09836">
        <ele>351</ele>
        <time>2015-07-19T08:26:18Z</time>
      </trkpt>
      <trkpt lat="47.77798" lon="7.09826">
        <ele>352</ele>
        <time>2015-07-19T08:26:25Z</time>
      </trkpt>
      <trkpt lat="47.77802" lon="7.09823">
        <ele>352</ele>
        <time>2015-07-19T08:26:29Z</time>
      </trkpt>
      <trkpt lat="47.77806" lon="7.0982">
        <ele>353</ele>
        <time>2015-07-19T08:26:35Z</time>
      </trkpt>
      <trkpt lat="47.7781" lon="7.09806">
        <ele>353</ele>
        <time>2015-07-19T08:26:42Z</time>
      </trkpt>
      <trkpt lat="47.77812" lon="7.09797">
        <ele>353.8</ele>
        <time>2015-07-19T08:26:46Z</time>
      </trkpt>
      <trkpt lat="47.77813" lon="7.09784">
        <ele>354</ele>
        <time>2015-07-19T08:26:55Z</time>
      </trkpt>
      <trkpt lat="47.77815" lon="7.09771">
        <ele>354</ele>
        <time>2015-07-19T08:27:02Z</time>
      </trkpt>
      <trkpt lat="47.77818" lon="7.09765">
        <ele>354</ele>
        <time>2015-07-19T08:27:06Z</time>
      </trkpt>
      <trkpt lat="47.77822" lon="7.09752">
        <ele>355</ele>
        <time>2015-07-19T08:27:15Z</time>
      </trkpt>
      <trkpt lat="47.7782" lon="7.09746">
        <ele>355</ele>
        <time>2015-07-19T08:27:19Z</time>
      </trkpt>
      <trkpt lat="47.77824" lon="7.09739">
        <ele>355.5</ele>
        <time>2015-07-19T08:27:24Z</time>
      </trkpt>
      <trkpt lat="47.77825" lon="7.09732">
        <ele>356</ele>
        <time>2015-07-19T08:27:28Z</time>
      </trkpt>
      <trkpt lat="47.77825" lon="7.09719">
        <ele>356.7</ele>
        <time>2015-07-19T08:27:35Z</time>
      </trkpt>
      <trkpt lat="47.77825" lon="7.09711">
        <ele>357</ele>
        <time>2015-07-19T08:27:39Z</time>
      </trkpt>
      <trkpt lat="47.77826" lon="7.09704">
        <ele>357</ele>
        <time>2015-07-19T08:27:43Z</time>
      </trkpt>
      <trkpt lat="47.77829" lon="7.0969">
        <ele>357</ele>
        <time>2015-07-19T08:27:53Z</time>
      </trkpt>
      <trkpt lat="47.7783" lon="7.09684">
        <ele>357</ele>
        <time>2015-07-19T08:28:00Z</time>
      </trkpt>
      <trkpt lat="47.7783" lon="7.09669">
        <ele>357</ele>
        <time>2015-07-19T08:28:05Z</time>
      </trkpt>
      <trkpt lat="47.77831" lon="7.09662">
        <ele>357</ele>
        <time>2015-07-19T08:28:11Z</time>
      </trkpt>
      <trkpt lat="47.77835" lon="7.09655">
        <ele>357</ele>
        <time>2015-07-19T08:28:16Z</time>
      </trkpt>
      <trkpt lat="47.77838" lon="7.09648">
        <ele>357</ele>
        <time>2015-07-19T08:28:20Z</time>
      </trkpt>
      <trkpt lat="47.7784" lon="7.0964">
        <ele>357</ele>
        <time>2015-07-19T08:28:26Z</time>
      </trkpt>
      <trkpt lat="47.77837" lon="7.09634">
        <ele>357</ele>
        <time>2015-07-19T08:28:30Z</time>
      </trkpt>
      <trkpt lat="47.77835" lon="7.09627">
        <ele>357.1</ele>
        <time>2015-07-19T08:28:34Z</time>
      </trkpt>
      <trkpt lat="47.77835" lon="7.09618">
        <ele>357</ele>
        <time>2015-07-19T08:28:38Z</time>
      </trkpt>
      <trkpt lat="47.77835" lon="7.09603">
        <ele>356.3</ele>
        <time>2015-07-19T08:28:46Z</time>
      </trkpt>
      <trkpt lat="47.77834" lon="7.09596">
        <ele>356</ele>
        <time>2015-07-19T08:28:50Z</time>
      </trkpt>
      <trkpt lat="47.77833" lon="7.09588">
        <ele>356</ele>
        <time>2015-07-19T08:28:54Z</time>
      </trkpt>
      <trkpt lat="47.77835" lon="7.09582">
        <ele>356</ele>
        <time>2015-07-19T08:28:59Z</time>
      </trkpt>
      <trkpt lat="47.77838" lon="7.09576">
        <ele>356</ele>
        <time>2015-07-19T08:29:03Z</time>
      </trkpt>
      <trkpt lat="47.7784" lon="7.09569">
        <ele>356</ele>
        <time>2015-07-19T08:29:07Z</time>
      </trkpt>
      <trkpt lat="47.7784" lon="7.09562">
        <ele>356</ele>
        <time>2015-07-19T08:29:11Z</time>
      </trkpt>
      <trkpt lat="47.77842" lon="7.09554">
        <ele>356</ele>
        <time>2015-07-19T08:29:15Z</time>
      </trkpt>
      <trkpt lat="47.77844" lon="7.09546">
        <ele>356</ele>
        <time>2015-07-19T08:29:19Z</time>
      </trkpt>
      <trkpt lat="47.77847" lon="7.09526">
        <ele>356</ele>
        <time>2015-07-19T08:29:31Z</time>
      </trkpt>
      <trkpt lat="47.77848" lon="7.09511">
        <ele>355</ele>
        <time>2015-07-19T08:29:38Z</time>
      </trkpt>
      <trkpt lat="47.77847" lon="7.09504">
        <ele>355</ele>
        <time>2015-07-19T08:29:41Z</time>
      </trkpt>
      <trkpt lat="47.77845" lon="7.09489">
        <ele>355</ele>
        <time>2015-07-19T08:29:50Z</time>
      </trkpt>
      <trkpt lat="47.77847" lon="7.09482">
        <ele>355</ele>
        <time>2015-07-19T08:29:55Z</time>
      </trkpt>
      <trkpt lat="47.77847" lon="7.09475">
        <ele>355</ele>
        <time>2015-07-19T08:30:00Z</time>
      </trkpt>
      <trkpt lat="47.77848" lon="7.09466">
        <ele>355</ele>
        <time>2015-07-19T08:30:04Z</time>
      </trkpt>
      <trkpt lat="47.77848" lon="7.09459">
        <ele>355</ele>
        <time>2015-07-19T08:30:08Z</time>
      </trkpt>
      <trkpt lat="47.77848" lon="7.09451">
        <ele>355</ele>
        <time>2015-07-19T08:30:14Z</time>
      </trkpt>
      <trkpt lat="47.77849" lon="7.09444">
        <ele>355</ele>
        <time>2015-07-19T08:30:17Z</time>
      </trkpt>
      <trkpt lat="47.77851" lon="7.09435">
        <ele>354</ele>
        <time>2015-07-19T08:30:21Z</time>
      </trkpt>
      <trkpt lat="47.77852" lon="7.09427">
        <ele>354</ele>
        <time>2015-07-19T08:30:25Z</time>
      </trkpt>
      <trkpt lat="47.77853" lon="7.09406">
        <ele>354</ele>
        <time>2015-07-19T08:30:34Z</time>
      </trkpt>
      <trkpt lat="47.77852" lon="7.09386">
        <ele>354</ele>
        <time>2015-07-19T08:30:45Z</time>
      </trkpt>
      <trkpt lat="47.77851" lon="7.09371">
        <ele>354</ele>
        <time>2015-07-19T08:30:51Z</time>
      </trkpt>
      <trkpt lat="47.77853" lon="7.09365">
        <ele>354</ele>
        <time>2015-07-19T08:30:56Z</time>
      </trkpt>
      <trkpt lat="47.77857" lon="7.0936">
        <ele>354</ele>
        <time>2015-07-19T08:31:00Z</time>
      </trkpt>
      <trkpt lat="47.77862" lon="7.09346">
        <ele>354</ele>
        <time>2015-07-19T08:31:07Z</time>
      </trkpt>
      <trkpt lat="47.77865" lon="7.09339">
        <ele>354</ele>
        <time>2015-07-19T08:31:11Z</time>
      </trkpt>
      <trkpt lat="47.77872" lon="7.09333">
        <ele>354</ele>
        <time>2015-07-19T08:31:18Z</time>
      </trkpt>
      <trkpt lat="47.77875" lon="7.09327">
        <ele>354</ele>
        <time>2015-07-19T08:31:22Z</time>
      </trkpt>
      <trkpt lat="47.77876" lon="7.0932">
        <ele>355</ele>
        <time>2015-07-19T08:31:26Z</time>
      </trkpt>
      <trkpt lat="47.7788" lon="7.09312">
        <ele>355</ele>
        <time>2015-07-19T08:31:30Z</time>
      </trkpt>
      <trkpt lat="47.77884" lon="7.09307">
        <ele>355</ele>
        <time>2015-07-19T08:31:34Z</time>
      </trkpt>
      <trkpt lat="47.77888" lon="7.09294">
        <ele>354</ele>
        <time>2015-07-19T08:31:43Z</time>
      </trkpt>
      <trkpt lat="47.77891" lon="7.09289">
        <ele>354</ele>
        <time>2015-07-19T08:31:47Z</time>
      </trkpt>
      <trkpt lat="47.77895" lon="7.09285">
        <ele>353.1</ele>
        <time>2015-07-19T08:31:52Z</time>
      </trkpt>
      <trkpt lat="47.779" lon="7.09283">
        <ele>353.1</ele>
        <time>2015-07-19T08:31:56Z</time>
      </trkpt>
      <trkpt lat="47.77904" lon="7.09279">
        <ele>353</ele>
        <time>2015-07-19T08:32:02Z</time>
      </trkpt>
      <trkpt lat="47.77909" lon="7.09267">
        <ele>353.9</ele>
        <time>2015-07-19T08:32:08Z</time>
      </trkpt>
      <trkpt lat="47.77914" lon="7.09262">
        <ele>354</ele>
        <time>2015-07-19T08:32:12Z</time>
      </trkpt>
      <trkpt lat="47.77918" lon="7.09257">
        <ele>354</ele>
        <time>2015-07-19T08:32:16Z</time>
      </trkpt>
      <trkpt lat="47.77922" lon="7.0925">
        <ele>355</ele>
        <time>2015-07-19T08:32:22Z</time>
      </trkpt>
      <trkpt lat="47.77927" lon="7.09248">
        <ele>355</ele>
        <time>2015-07-19T08:32:25Z</time>
      </trkpt>
      <trkpt lat="47.7793" lon="7.09243">
        <ele>355</ele>
        <time>2015-07-19T08:32:29Z</time>
      </trkpt>
      <trkpt lat="47.77938" lon="7.09227">
        <ele>359</ele>
        <time>2015-07-19T08:32:39Z</time>
      </trkpt>
      <trkpt lat="47.77947" lon="7.09222">
        <ele>360</ele>
        <time>2015-07-19T08:32:48Z</time>
      </trkpt>
      <trkpt lat="47.77952" lon="7.09217">
        <ele>360</ele>
        <time>2015-07-19T08:32:53Z</time>
      </trkpt>
      <trkpt lat="47.77955" lon="7.09211">
        <ele>360</ele>
        <time>2015-07-19T08:32:56Z</time>
      </trkpt>
      <trkpt lat="47.77959" lon="7.09206">
        <ele>360.9</ele>
        <time>2015-07-19T08:33:00Z</time>
      </trkpt>
      <trkpt lat="47.77968" lon="7.09201">
        <ele>361</ele>
        <time>2015-07-19T08:33:08Z</time>
      </trkpt>
      <trkpt lat="47.77974" lon="7.09211">
        <ele>361</ele>
        <time>2015-07-19T08:33:13Z</time>
      </trkpt>
      <trkpt lat="47.77978" lon="7.09216">
        <ele>361</ele>
        <time>2015-07-19T08:33:16Z</time>
      </trkpt>
      <trkpt lat="47.77981" lon="7.09222">
        <ele>361</ele>
        <time>2015-07-19T08:33:19Z</time>
      </trkpt>
      <trkpt lat="47.77986" lon="7.09228">
        <ele>361</ele>
        <time>2015-07-19T08:33:23Z</time>
      </trkpt>
      <trkpt lat="47.77989" lon="7.09242">
        <ele>360</ele>
        <time>2015-07-19T08:33:31Z</time>
      </trkpt>
      <trkpt lat="47.77989" lon="7.09249">
        <ele>360</ele>
        <time>2015-07-19T08:33:36Z</time>
      </trkpt>
      <trkpt lat="47.77995" lon="7.09261">
        <ele>360</ele>
        <time>2015-07-19T08:33:44Z</time>
      </trkpt>
      <trkpt lat="47.78" lon="7.09265">
        <ele>360</ele>
        <time>2015-07-19T08:33:47Z</time>
      </trkpt>
      <trkpt lat="47.78011" lon="7.09271">
        <ele>360</ele>
        <time>2015-07-19T08:33:56Z</time>
      </trkpt>
      <trkpt lat="47.78024" lon="7.09281">
        <ele>360</ele>
        <time>2015-07-19T08:34:05Z</time>
      </trkpt>
      <trkpt lat="47.78033" lon="7.09287">
        <ele>360</ele>
        <time>2015-07-19T08:34:14Z</time>
      </trkpt>
      <trkpt lat="47.78037" lon="7.0929">
        <ele>365.3</ele>
        <time>2015-07-19T08:34:20Z</time>
      </trkpt>
      <trkpt lat="47.78038" lon="7.09296">
        <ele>367.7</ele>
        <time>2015-07-19T08:34:24Z</time>
      </trkpt>
      <trkpt lat="47.78049" lon="7.09309">
        <ele>370</ele>
        <time>2015-07-19T08:34:40Z</time>
      </trkpt>
      <trkpt lat="47.78052" lon="7.09314">
        <ele>371</ele>
        <time>2015-07-19T08:34:46Z</time>
      </trkpt>
      <trkpt lat="47.78057" lon="7.09317">
        <ele>372</ele>
        <time>2015-07-19T08:34:53Z</time>
      </trkpt>
      <trkpt lat="47.78066" lon="7.09326">
        <ele>372.8</ele>
        <time>2015-07-19T08:35:04Z</time>
      </trkpt>
      <trkpt lat="47.78068" lon="7.09332">
        <ele>373.7</ele>
        <time>2015-07-19T08:35:10Z</time>
      </trkpt>
      <trkpt lat="47.78072" lon="7.09333">
        <ele>374</ele>
        <time>2015-07-19T08:35:18Z</time>
      </trkpt>
      <trkpt lat="47.78077" lon="7.09334">
        <ele>374</ele>
        <time>2015-07-19T08:35:28Z</time>
      </trkpt>
      <trkpt lat="47.78081" lon="7.09338">
        <ele>375</ele>
        <time>2015-07-19T08:35:34Z</time>
      </trkpt>
      <trkpt lat="47.78085" lon="7.09344">
        <ele>375</ele>
        <time>2015-07-19T08:35:40Z</time>
      </trkpt>
      <trkpt lat="47.7809" lon="7.09346">
        <ele>375</ele>
        <time>2015-07-19T08:35:46Z</time>
      </trkpt>
      <trkpt lat="47.78094" lon="7.09349">
        <ele>375</ele>
        <time>2015-07-19T08:35:53Z</time>
      </trkpt>
      <trkpt lat="47.78097" lon="7.09354">
        <ele>375</ele>
        <time>2015-07-19T08:35:59Z</time>
      </trkpt>
      <trkpt lat="47.78108" lon="7.09368">
        <ele>375.8</ele>
        <time>2015-07-19T08:36:15Z</time>
      </trkpt>
      <trkpt lat="47.78116" lon="7.09378">
        <ele>377.8</ele>
        <time>2015-07-19T08:36:25Z</time>
      </trkpt>
      <trkpt lat="47.78121" lon="7.09378">
        <ele>379.7</ele>
        <time>2015-07-19T08:36:33Z</time>
      </trkpt>
      <trkpt lat="47.78126" lon="7.09382">
        <ele>380.7</ele>
        <time>2015-07-19T08:36:39Z</time>
      </trkpt>
      <trkpt lat="47.7813" lon="7.09386">
        <ele>381</ele>
        <time>2015-07-19T08:36:44Z</time>
      </trkpt>
      <trkpt lat="47.78137" lon="7.09387">
        <ele>381</ele>
        <time>2015-07-19T08:36:49Z</time>
      </trkpt>
      <trkpt lat="47.78142" lon="7.09389">
        <ele>381</ele>
        <time>2015-07-19T08:36:54Z</time>
      </trkpt>
      <trkpt lat="47.78146" lon="7.09384">
        <ele>382</ele>
        <time>2015-07-19T08:37:08Z</time>
      </trkpt>
      <trkpt lat="47.7815" lon="7.09382">
        <ele>383</ele>
        <time>2015-07-19T08:37:16Z</time>
      </trkpt>
      <trkpt lat="47.7815" lon="7.09375">
        <ele>383</ele>
        <time>2015-07-19T08:37:19Z</time>
      </trkpt>
      <trkpt lat="47.7815" lon="7.09367">
        <ele>383</ele>
        <time>2015-07-19T08:37:23Z</time>
      </trkpt>
      <trkpt lat="47.78155" lon="7.09357">
        <ele>383.8</ele>
        <time>2015-07-19T08:37:31Z</time>
      </trkpt>
      <trkpt lat="47.7816" lon="7.09345">
        <ele>384</ele>
        <time>2015-07-19T08:37:45Z</time>
      </trkpt>
      <trkpt lat="47.78163" lon="7.0934">
        <ele>384</ele>
        <time>2015-07-19T08:37:50Z</time>
      </trkpt>
      <trkpt lat="47.78168" lon="7.09327">
        <ele>384</ele>
        <time>2015-07-19T08:37:59Z</time>
      </trkpt>
      <trkpt lat="47.78171" lon="7.09322">
        <ele>384.9</ele>
        <time>2015-07-19T08:38:03Z</time>
      </trkpt>
      <trkpt lat="47.78177" lon="7.0931">
        <ele>385</ele>
        <time>2015-07-19T08:38:14Z</time>
      </trkpt>
      <trkpt lat="47.78182" lon="7.09295">
        <ele>385</ele>
        <time>2015-07-19T08:38:24Z</time>
      </trkpt>
      <trkpt lat="47.78187" lon="7.09291">
        <ele>385.9</ele>
        <time>2015-07-19T08:38:27Z</time>
      </trkpt>
      <trkpt lat="47.78192" lon="7.09288">
        <ele>386</ele>
        <time>2015-07-19T08:38:33Z</time>
      </trkpt>
      <trkpt lat="47.78195" lon="7.09283">
        <ele>385.9</ele>
        <time>2015-07-19T08:38:39Z</time>
      </trkpt>
      <trkpt lat="47.78197" lon="7.09277">
        <ele>385.9</ele>
        <time>2015-07-19T08:38:43Z</time>
      </trkpt>
      <trkpt lat="47.78201" lon="7.09271">
        <ele>386</ele>
        <time>2015-07-19T08:38:49Z</time>
      </trkpt>
      <trkpt lat="47.78204" lon="7.09266">
        <ele>386</ele>
        <time>2015-07-19T08:38:53Z</time>
      </trkpt>
      <trkpt lat="47.78207" lon="7.09257">
        <ele>386</ele>
        <time>2015-07-19T08:38:59Z</time>
      </trkpt>
      <trkpt lat="47.78211" lon="7.0925">
        <ele>386</ele>
        <time>2015-07-19T08:39:06Z</time>
      </trkpt>
      <trkpt lat="47.78217" lon="7.09241">
        <ele>387</ele>
        <time>2015-07-19T08:39:12Z</time>
      </trkpt>
      <trkpt lat="47.78225" lon="7.09223">
        <ele>387</ele>
        <time>2015-07-19T08:39:26Z</time>
      </trkpt>
      <trkpt lat="47.78232" lon="7.09213">
        <ele>388.7</ele>
        <time>2015-07-19T08:39:37Z</time>
      </trkpt>
      <trkpt lat="47.78235" lon="7.09198">
        <ele>390.4</ele>
        <time>2015-07-19T08:39:43Z</time>
      </trkpt>
      <trkpt lat="47.78239" lon="7.09192">
        <ele>391.5</ele>
        <time>2015-07-19T08:39:47Z</time>
      </trkpt>
      <trkpt lat="47.78244" lon="7.09191">
        <ele>392</ele>
        <time>2015-07-19T08:39:51Z</time>
      </trkpt>
      <trkpt lat="47.78257" lon="7.09182">
        <ele>392</ele>
        <time>2015-07-19T08:40:06Z</time>
      </trkpt>
      <trkpt lat="47.78261" lon="7.09177">
        <ele>392</ele>
        <time>2015-07-19T08:40:13Z</time>
      </trkpt>
      <trkpt lat="47.78272" lon="7.09165">
        <ele>392.9</ele>
        <time>2015-07-19T08:40:24Z</time>
      </trkpt>
      <trkpt lat="47.78283" lon="7.09152">
        <ele>392</ele>
        <time>2015-07-19T08:40:38Z</time>
      </trkpt>
      <trkpt lat="47.78289" lon="7.09147">
        <ele>392</ele>
        <time>2015-07-19T08:40:43Z</time>
      </trkpt>
      <trkpt lat="47.78293" lon="7.09142">
        <ele>392</ele>
        <time>2015-07-19T08:40:50Z</time>
      </trkpt>
      <trkpt lat="47.78297" lon="7.09141">
        <ele>392.9</ele>
        <time>2015-07-19T08:40:54Z</time>
      </trkpt>
      <trkpt lat="47.78302" lon="7.09138">
        <ele>392.9</ele>
        <time>2015-07-19T08:40:58Z</time>
      </trkpt>
      <trkpt lat="47.78306" lon="7.09135">
        <ele>393</ele>
        <time>2015-07-19T08:41:01Z</time>
      </trkpt>
      <trkpt lat="47.78309" lon="7.09129">
        <ele>393</ele>
        <time>2015-07-19T08:41:05Z</time>
      </trkpt>
      <trkpt lat="47.78311" lon="7.09123">
        <ele>393</ele>
        <time>2015-07-19T08:41:15Z</time>
      </trkpt>
      <trkpt lat="47.78315" lon="7.09118">
        <ele>393</ele>
        <time>2015-07-19T08:41:18Z</time>
      </trkpt>
      <trkpt lat="47.78323" lon="7.09112">
        <ele>393</ele>
        <time>2015-07-19T08:41:23Z</time>
      </trkpt>
      <trkpt lat="47.78329" lon="7.09109">
        <ele>393</ele>
        <time>2015-07-19T08:41:27Z</time>
      </trkpt>
      <trkpt lat="47.78334" lon="7.09098">
        <ele>394</ele>
        <time>2015-07-19T08:41:34Z</time>
      </trkpt>
      <trkpt lat="47.78339" lon="7.09095">
        <ele>394</ele>
        <time>2015-07-19T08:41:37Z</time>
      </trkpt>
      <trkpt lat="47.78344" lon="7.09093">
        <ele>394</ele>
        <time>2015-07-19T08:41:41Z</time>
      </trkpt>
      <trkpt lat="47.78347" lon="7.09087">
        <ele>394</ele>
        <time>2015-07-19T08:41:48Z</time>
      </trkpt>
      <trkpt lat="47.78352" lon="7.09084">
        <ele>394</ele>
        <time>2015-07-19T08:41:52Z</time>
      </trkpt>
      <trkpt lat="47.78356" lon="7.0908">
        <ele>394</ele>
        <time>2015-07-19T08:41:57Z</time>
      </trkpt>
      <trkpt lat="47.7836" lon="7.09078">
        <ele>394</ele>
        <time>2015-07-19T08:42:01Z</time>
      </trkpt>
      <trkpt lat="47.78365" lon="7.09074">
        <ele>394</ele>
        <time>2015-07-19T08:42:05Z</time>
      </trkpt>
      <trkpt lat="47.78368" lon="7.09068">
        <ele>394</ele>
        <time>2015-07-19T08:42:09Z</time>
      </trkpt>
      <trkpt lat="47.78372" lon="7.09062">
        <ele>394</ele>
        <time>2015-07-19T08:42:14Z</time>
      </trkpt>
      <trkpt lat="47.78375" lon="7.09056">
        <ele>393.1</ele>
        <time>2015-07-19T08:42:19Z</time>
      </trkpt>
      <trkpt lat="47.78377" lon="7.09048">
        <ele>393</ele>
        <time>2015-07-19T08:42:26Z</time>
      </trkpt>
      <trkpt lat="47.78384" lon="7.09039">
        <ele>393</ele>
        <time>2015-07-19T08:42:34Z</time>
      </trkpt>
      <trkpt lat="47.78394" lon="7.09035">
        <ele>393</ele>
        <time>2015-07-19T08:42:42Z</time>
      </trkpt>
      <trkpt lat="47.78401" lon="7.09038">
        <ele>393</ele>
        <time>2015-07-19T08:42:46Z</time>
      </trkpt>
      <trkpt lat="47.78404" lon="7.09044">
        <ele>393</ele>
        <time>2015-07-19T08:42:51Z</time>
      </trkpt>
      <trkpt lat="47.78403" lon="7.09054">
        <ele>393.9</ele>
        <time>2015-07-19T08:42:56Z</time>
      </trkpt>
      <trkpt lat="47.78402" lon="7.09062">
        <ele>394</ele>
        <time>2015-07-19T08:43:00Z</time>
      </trkpt>
      <trkpt lat="47.78403" lon="7.0907">
        <ele>394</ele>
        <time>2015-07-19T08:43:04Z</time>
      </trkpt>
      <trkpt lat="47.78402" lon="7.09077">
        <ele>394</ele>
        <time>2015-07-19T08:43:08Z</time>
      </trkpt>
      <trkpt lat="47.78406" lon="7.09097">
        <ele>394</ele>
        <time>2015-07-19T08:43:20Z</time>
      </trkpt>
      <trkpt lat="47.78409" lon="7.09102">
        <ele>394</ele>
        <time>2015-07-19T08:43:26Z</time>
      </trkpt>
      <trkpt lat="47.78407" lon="7.09109">
        <ele>394</ele>
        <time>2015-07-19T08:43:31Z</time>
      </trkpt>
      <trkpt lat="47.78403" lon="7.09116">
        <ele>394</ele>
        <time>2015-07-19T08:43:36Z</time>
      </trkpt>
      <trkpt lat="47.78407" lon="7.09112">
        <ele>394</ele>
        <time>2015-07-19T08:43:41Z</time>
      </trkpt>
      <trkpt lat="47.78413" lon="7.09102">
        <ele>394</ele>
        <time>2015-07-19T08:43:46Z</time>
      </trkpt>
      <trkpt lat="47.78418" lon="7.09098">
        <ele>394</ele>
        <time>2015-07-19T08:43:50Z</time>
      </trkpt>
      <trkpt lat="47.78422" lon="7.091">
        <ele>394</ele>
        <time>2015-07-19T08:43:55Z</time>
      </trkpt>
      <trkpt lat="47.78428" lon="7.09102">
        <ele>394</ele>
        <time>2015-07-19T08:44:02Z</time>
      </trkpt>
      <trkpt lat="47.78433" lon="7.09098">
        <ele>394</ele>
        <time>2015-07-19T08:44:06Z</time>
      </trkpt>
      <trkpt lat="47.78441" lon="7.0908">
        <ele>395</ele>
        <time>2015-07-19T08:44:20Z</time>
      </trkpt>
      <trkpt lat="47.78448" lon="7.0907">
        <ele>395</ele>
        <time>2015-07-19T08:44:36Z</time>
      </trkpt>
      <trkpt lat="47.78453" lon="7.09071">
        <ele>395</ele>
        <time>2015-07-19T08:44:40Z</time>
      </trkpt>
      <trkpt lat="47.78462" lon="7.09074">
        <ele>399.1</ele>
        <time>2015-07-19T08:44:50Z</time>
      </trkpt>
      <trkpt lat="47.78468" lon="7.09073">
        <ele>400.8</ele>
        <time>2015-07-19T08:44:54Z</time>
      </trkpt>
      <trkpt lat="47.78472" lon="7.09075">
        <ele>404.5</ele>
        <time>2015-07-19T08:45:09Z</time>
      </trkpt>
      <trkpt lat="47.78477" lon="7.09076">
        <ele>404.5</ele>
        <time>2015-07-19T08:45:13Z</time>
      </trkpt>
      <trkpt lat="47.78482" lon="7.09078">
        <ele>405</ele>
        <time>2015-07-19T08:45:18Z</time>
      </trkpt>
      <trkpt lat="47.78487" lon="7.0908">
        <ele>406</ele>
        <time>2015-07-19T08:45:34Z</time>
      </trkpt>
      <trkpt lat="47.78491" lon="7.09075">
        <ele>406</ele>
        <time>2015-07-19T08:45:41Z</time>
      </trkpt>
      <trkpt lat="47.78495" lon="7.09073">
        <ele>406</ele>
        <time>2015-07-19T08:45:45Z</time>
      </trkpt>
      <trkpt lat="47.78505" lon="7.09068">
        <ele>406</ele>
        <time>2015-07-19T08:45:50Z</time>
      </trkpt>
      <trkpt lat="47.78511" lon="7.09067">
        <ele>406</ele>
        <time>2015-07-19T08:45:54Z</time>
      </trkpt>
      <trkpt lat="47.78517" lon="7.09063">
        <ele>406</ele>
        <time>2015-07-19T08:46:00Z</time>
      </trkpt>
      <trkpt lat="47.7852" lon="7.09058">
        <ele>406</ele>
        <time>2015-07-19T08:46:04Z</time>
      </trkpt>
      <trkpt lat="47.78524" lon="7.09054">
        <ele>406</ele>
        <time>2015-07-19T08:46:09Z</time>
      </trkpt>
      <trkpt lat="47.78525" lon="7.09047">
        <ele>406.5</ele>
        <time>2015-07-19T08:46:12Z</time>
      </trkpt>
      <trkpt lat="47.78524" lon="7.0904">
        <ele>406.5</ele>
        <time>2015-07-19T08:46:15Z</time>
      </trkpt>
      <trkpt lat="47.78529" lon="7.09039">
        <ele>407.5</ele>
        <time>2015-07-19T08:46:24Z</time>
      </trkpt>
      <trkpt lat="47.78536" lon="7.09038">
        <ele>410</ele>
        <time>2015-07-19T08:46:33Z</time>
      </trkpt>
      <trkpt lat="47.7854" lon="7.09034">
        <ele>410</ele>
        <time>2015-07-19T08:46:37Z</time>
      </trkpt>
      <trkpt lat="47.78544" lon="7.09028">
        <ele>410</ele>
        <time>2015-07-19T08:46:42Z</time>
      </trkpt>
      <trkpt lat="47.78549" lon="7.09022">
        <ele>410</ele>
        <time>2015-07-19T08:46:49Z</time>
      </trkpt>
      <trkpt lat="47.78552" lon="7.09029">
        <ele>410</ele>
        <time>2015-07-19T08:47:00Z</time>
      </trkpt>
      <trkpt lat="47.78557" lon="7.09035">
        <ele>411</ele>
        <time>2015-07-19T08:47:04Z</time>
      </trkpt>
      <trkpt lat="47.78559" lon="7.09042">
        <ele>411</ele>
        <time>2015-07-19T08:47:10Z</time>
      </trkpt>
      <trkpt lat="47.78561" lon="7.09035">
        <ele>411</ele>
        <time>2015-07-19T08:47:24Z</time>
      </trkpt>
      <trkpt lat="47.78564" lon="7.09041">
        <ele>412.9</ele>
        <time>2015-07-19T08:47:39Z</time>
      </trkpt>
      <trkpt lat="47.78575" lon="7.09036">
        <ele>414</ele>
        <time>2015-07-19T08:47:50Z</time>
      </trkpt>
      <trkpt lat="47.78577" lon="7.09029">
        <ele>414.9</ele>
        <time>2015-07-19T08:47:55Z</time>
      </trkpt>
      <trkpt lat="47.78578" lon="7.09021">
        <ele>416.2</ele>
        <time>2015-07-19T08:48:00Z</time>
      </trkpt>
      <trkpt lat="47.78584" lon="7.09012">
        <ele>418.7</ele>
        <time>2015-07-19T08:48:07Z</time>
      </trkpt>
      <trkpt lat="47.78587" lon="7.09006">
        <ele>420.2</ele>
        <time>2015-07-19T08:48:12Z</time>
      </trkpt>
      <trkpt lat="47.78593" lon="7.08995">
        <ele>421</ele>
        <time>2015-07-19T08:48:21Z</time>
      </trkpt>
      <trkpt lat="47.78593" lon="7.08987">
        <ele>421.9</ele>
        <time>2015-07-19T08:48:26Z</time>
      </trkpt>
      <trkpt lat="47.78596" lon="7.0898">
        <ele>422.5</ele>
        <time>2015-07-19T08:48:31Z</time>
      </trkpt>
      <trkpt lat="47.786" lon="7.08976">
        <ele>422.9</ele>
        <time>2015-07-19T08:48:37Z</time>
      </trkpt>
      <trkpt lat="47.78604" lon="7.08972">
        <ele>425.7</ele>
        <time>2015-07-19T08:48:44Z</time>
      </trkpt>
      <trkpt lat="47.78611" lon="7.08961">
        <ele>428.7</ele>
        <time>2015-07-19T08:48:55Z</time>
      </trkpt>
      <trkpt lat="47.7861" lon="7.08953">
        <ele>429.7</ele>
        <time>2015-07-19T08:49:00Z</time>
      </trkpt>
      <trkpt lat="47.7861" lon="7.08946">
        <ele>430.9</ele>
        <time>2015-07-19T08:49:04Z</time>
      </trkpt>
      <trkpt lat="47.78613" lon="7.0894">
        <ele>431.9</ele>
        <time>2015-07-19T08:49:09Z</time>
      </trkpt>
      <trkpt lat="47.78616" lon="7.08935">
        <ele>432</ele>
        <time>2015-07-19T08:49:14Z</time>
      </trkpt>
      <trkpt lat="47.7862" lon="7.0893">
        <ele>432</ele>
        <time>2015-07-19T08:49:19Z</time>
      </trkpt>
      <trkpt lat="47.78624" lon="7.08925">
        <ele>432</ele>
        <time>2015-07-19T08:49:24Z</time>
      </trkpt>
      <trkpt lat="47.78627" lon="7.08917">
        <ele>432</ele>
        <time>2015-07-19T08:49:32Z</time>
      </trkpt>
      <trkpt lat="47.78632" lon="7.08913">
        <ele>432</ele>
        <time>2015-07-19T08:49:46Z</time>
      </trkpt>
      <trkpt lat="47.78632" lon="7.0892">
        <ele>432</ele>
        <time>2015-07-19T08:49:59Z</time>
      </trkpt>
      <trkpt lat="47.78637" lon="7.08916">
        <ele>432</ele>
        <time>2015-07-19T08:50:03Z</time>
      </trkpt>
      <trkpt lat="47.78641" lon="7.08912">
        <ele>432</ele>
        <time>2015-07-19T08:50:09Z</time>
      </trkpt>
      <trkpt lat="47.78645" lon="7.08917">
        <ele>431</ele>
        <time>2015-07-19T08:50:14Z</time>
      </trkpt>
      <trkpt lat="47.7864" lon="7.08914">
        <ele>432</ele>
        <time>2015-07-19T08:50:35Z</time>
      </trkpt>
      <trkpt lat="47.78644" lon="7.08918">
        <ele>432</ele>
        <time>2015-07-19T08:50:41Z</time>
      </trkpt>
      <trkpt lat="47.78644" lon="7.0891">
        <ele>432</ele>
        <time>2015-07-19T08:50:45Z</time>
      </trkpt>
      <trkpt lat="47.78639" lon="7.08912">
        <ele>432</ele>
        <time>2015-07-19T08:50:58Z</time>
      </trkpt>
      <trkpt lat="47.78642" lon="7.08906">
        <ele>432</ele>
        <time>2015-07-19T08:51:13Z</time>
      </trkpt>
      <trkpt lat="47.78637" lon="7.08917">
        <ele>432.9</ele>
        <time>2015-07-19T08:51:19Z</time>
      </trkpt>
      <trkpt lat="47.78633" lon="7.08922">
        <ele>433</ele>
        <time>2015-07-19T08:51:23Z</time>
      </trkpt>
      <trkpt lat="47.78635" lon="7.08915">
        <ele>431</ele>
        <time>2015-07-19T08:52:03Z</time>
      </trkpt>
      <trkpt lat="47.78644" lon="7.08918">
        <ele>430</ele>
        <time>2015-07-19T08:52:28Z</time>
      </trkpt>
      <trkpt lat="47.78648" lon="7.08913">
        <ele>430</ele>
        <time>2015-07-19T08:52:40Z</time>
      </trkpt>
      <trkpt lat="47.78658" lon="7.08915">
        <ele>430</ele>
        <time>2015-07-19T08:52:43Z</time>
      </trkpt>
      <trkpt lat="47.78664" lon="7.08916">
        <ele>430.9</ele>
        <time>2015-07-19T08:52:46Z</time>
      </trkpt>
      <trkpt lat="47.7866" lon="7.0892">
        <ele>430.9</ele>
        <time>2015-07-19T08:52:49Z</time>
      </trkpt>
      <trkpt lat="47.78654" lon="7.08924">
        <ele>431</ele>
        <time>2015-07-19T08:52:54Z</time>
      </trkpt>
      <trkpt lat="47.7865" lon="7.08917">
        <ele>431</ele>
        <time>2015-07-19T08:53:00Z</time>
      </trkpt>
      <trkpt lat="47.78646" lon="7.08913">
        <ele>431</ele>
        <time>2015-07-19T08:53:04Z</time>
      </trkpt>
      <trkpt lat="47.78642" lon="7.08917">
        <ele>431.5</ele>
        <time>2015-07-19T08:53:22Z</time>
      </trkpt>
      <trkpt lat="47.78641" lon="7.08924">
        <ele>432</ele>
        <time>2015-07-19T08:53:31Z</time>
      </trkpt>
      <trkpt lat="47.78644" lon="7.08919">
        <ele>431</ele>
        <time>2015-07-19T08:54:27Z</time>
      </trkpt>
      <trkpt lat="47.78647" lon="7.08925">
        <ele>430</ele>
        <time>2015-07-19T08:54:36Z</time>
      </trkpt>
      <trkpt lat="47.78652" lon="7.08928">
        <ele>430</ele>
        <time>2015-07-19T08:54:41Z</time>
      </trkpt>
      <trkpt lat="47.78656" lon="7.08932">
        <ele>430</ele>
        <time>2015-07-19T08:54:48Z</time>
      </trkpt>
      <trkpt lat="47.78661" lon="7.08933">
        <ele>429</ele>
        <time>2015-07-19T08:54:57Z</time>
      </trkpt>
      <trkpt lat="47.78667" lon="7.08929">
        <ele>429</ele>
        <time>2015-07-19T08:55:07Z</time>
      </trkpt>
      <trkpt lat="47.78671" lon="7.08923">
        <ele>429</ele>
        <time>2015-07-19T08:55:12Z</time>
      </trkpt>
      <trkpt lat="47.78675" lon="7.08918">
        <ele>429</ele>
        <time>2015-07-19T08:55:16Z</time>
      </trkpt>
      <trkpt lat="47.7868" lon="7.08917">
        <ele>429.9</ele>
        <time>2015-07-19T08:55:21Z</time>
      </trkpt>
      <trkpt lat="47.78685" lon="7.08913">
        <ele>430</ele>
        <time>2015-07-19T08:55:27Z</time>
      </trkpt>
      <trkpt lat="47.78692" lon="7.08903">
        <ele>430</ele>
        <time>2015-07-19T08:55:37Z</time>
      </trkpt>
      <trkpt lat="47.78696" lon="7.08898">
        <ele>430</ele>
        <time>2015-07-19T08:55:42Z</time>
      </trkpt>
      <trkpt lat="47.78698" lon="7.08878">
        <ele>430</ele>
        <time>2015-07-19T08:55:52Z</time>
      </trkpt>
      <trkpt lat="47.787" lon="7.08867">
        <ele>432</ele>
        <time>2015-07-19T08:56:05Z</time>
      </trkpt>
      <trkpt lat="47.78707" lon="7.08858">
        <ele>432</ele>
        <time>2015-07-19T08:56:16Z</time>
      </trkpt>
      <trkpt lat="47.78709" lon="7.0885">
        <ele>432.8</ele>
        <time>2015-07-19T08:56:21Z</time>
      </trkpt>
      <trkpt lat="47.78707" lon="7.08843">
        <ele>432.2</ele>
        <time>2015-07-19T08:56:27Z</time>
      </trkpt>
      <trkpt lat="47.78702" lon="7.0884">
        <ele>432</ele>
        <time>2015-07-19T08:56:31Z</time>
      </trkpt>
      <trkpt lat="47.78697" lon="7.08839">
        <ele>433</ele>
        <time>2015-07-19T08:56:48Z</time>
      </trkpt>
      <trkpt lat="47.78699" lon="7.08833">
        <ele>433</ele>
        <time>2015-07-19T08:56:53Z</time>
      </trkpt>
      <trkpt lat="47.78702" lon="7.08827">
        <ele>433</ele>
        <time>2015-07-19T08:56:57Z</time>
      </trkpt>
      <trkpt lat="47.78702" lon="7.08819">
        <ele>433</ele>
        <time>2015-07-19T08:57:03Z</time>
      </trkpt>
      <trkpt lat="47.78703" lon="7.08812">
        <ele>433</ele>
        <time>2015-07-19T08:57:07Z</time>
      </trkpt>
      <trkpt lat="47.78706" lon="7.088">
        <ele>434</ele>
        <time>2015-07-19T08:57:12Z</time>
      </trkpt>
      <trkpt lat="47.78712" lon="7.08804">
        <ele>434</ele>
        <time>2015-07-19T08:57:18Z</time>
      </trkpt>
      <trkpt lat="47.78716" lon="7.08803">
        <ele>434</ele>
        <time>2015-07-19T08:57:23Z</time>
      </trkpt>
      <trkpt lat="47.78722" lon="7.08801">
        <ele>436.7</ele>
        <time>2015-07-19T08:57:32Z</time>
      </trkpt>
      <trkpt lat="47.78728" lon="7.08798">
        <ele>437</ele>
        <time>2015-07-19T08:57:36Z</time>
      </trkpt>
      <trkpt lat="47.78736" lon="7.0879">
        <ele>437.9</ele>
        <time>2015-07-19T08:57:44Z</time>
      </trkpt>
      <trkpt lat="47.78739" lon="7.08785">
        <ele>438</ele>
        <time>2015-07-19T08:57:51Z</time>
      </trkpt>
      <trkpt lat="47.78741" lon="7.08778">
        <ele>438</ele>
        <time>2015-07-19T08:57:57Z</time>
      </trkpt>
      <trkpt lat="47.7875" lon="7.08773">
        <ele>438.9</ele>
        <time>2015-07-19T08:58:03Z</time>
      </trkpt>
      <trkpt lat="47.78756" lon="7.08772">
        <ele>440</ele>
        <time>2015-07-19T08:58:08Z</time>
      </trkpt>
      <trkpt lat="47.78765" lon="7.08765">
        <ele>442</ele>
        <time>2015-07-19T08:58:23Z</time>
      </trkpt>
      <trkpt lat="47.78771" lon="7.0876">
        <ele>446.8</ele>
        <time>2015-07-19T08:58:31Z</time>
      </trkpt>
      <trkpt lat="47.78775" lon="7.08757">
        <ele>446.9</ele>
        <time>2015-07-19T08:58:39Z</time>
      </trkpt>
      <trkpt lat="47.7878" lon="7.08755">
        <ele>449</ele>
        <time>2015-07-19T08:58:48Z</time>
      </trkpt>
      <trkpt lat="47.78785" lon="7.08753">
        <ele>450.5</ele>
        <time>2015-07-19T08:58:53Z</time>
      </trkpt>
      <trkpt lat="47.78791" lon="7.08748">
        <ele>451.7</ele>
        <time>2015-07-19T08:58:58Z</time>
      </trkpt>
      <trkpt lat="47.78795" lon="7.08744">
        <ele>453.6</ele>
        <time>2015-07-19T08:59:01Z</time>
      </trkpt>
      <trkpt lat="47.78799" lon="7.0874">
        <ele>455.8</ele>
        <time>2015-07-19T08:59:05Z</time>
      </trkpt>
      <trkpt lat="47.78801" lon="7.08731">
        <ele>457.7</ele>
        <time>2015-07-19T08:59:15Z</time>
      </trkpt>
      <trkpt lat="47.78803" lon="7.08724">
        <ele>458</ele>
        <time>2015-07-19T08:59:27Z</time>
      </trkpt>
      <trkpt lat="47.78811" lon="7.08717">
        <ele>458</ele>
        <time>2015-07-19T08:59:34Z</time>
      </trkpt>
      <trkpt lat="47.78824" lon="7.0871">
        <ele>459</ele>
        <time>2015-07-19T08:59:47Z</time>
      </trkpt>
      <trkpt lat="47.78833" lon="7.08702">
        <ele>459</ele>
        <time>2015-07-19T08:59:55Z</time>
      </trkpt>
      <trkpt lat="47.78838" lon="7.08696">
        <ele>459</ele>
        <time>2015-07-19T08:59:58Z</time>
      </trkpt>
      <trkpt lat="47.78843" lon="7.08693">
        <ele>459</ele>
        <time>2015-07-19T09:00:03Z</time>
      </trkpt>
      <trkpt lat="47.7885" lon="7.08684">
        <ele>460.7</ele>
        <time>2015-07-19T09:00:11Z</time>
      </trkpt>
      <trkpt lat="47.78854" lon="7.08681">
        <ele>462</ele>
        <time>2015-07-19T09:00:22Z</time>
      </trkpt>
      <trkpt lat="47.78865" lon="7.08677">
        <ele>462</ele>
        <time>2015-07-19T09:00:29Z</time>
      </trkpt>
      <trkpt lat="47.78869" lon="7.08672">
        <ele>462</ele>
        <time>2015-07-19T09:00:32Z</time>
      </trkpt>
      <trkpt lat="47.78874" lon="7.0866">
        <ele>463</ele>
        <time>2015-07-19T09:00:43Z</time>
      </trkpt>
      <trkpt lat="47.78878" lon="7.08648">
        <ele>463</ele>
        <time>2015-07-19T09:00:51Z</time>
      </trkpt>
      <trkpt lat="47.78881" lon="7.08642">
        <ele>463</ele>
        <time>2015-07-19T09:00:55Z</time>
      </trkpt>
      <trkpt lat="47.78884" lon="7.08637">
        <ele>462.5</ele>
        <time>2015-07-19T09:01:01Z</time>
      </trkpt>
      <trkpt lat="47.78889" lon="7.08632">
        <ele>462</ele>
        <time>2015-07-19T09:01:05Z</time>
      </trkpt>
      <trkpt lat="47.78892" lon="7.08626">
        <ele>462</ele>
        <time>2015-07-19T09:01:13Z</time>
      </trkpt>
      <trkpt lat="47.78895" lon="7.08621">
        <ele>462</ele>
        <time>2015-07-19T09:01:19Z</time>
      </trkpt>
      <trkpt lat="47.78902" lon="7.08612">
        <ele>462</ele>
        <time>2015-07-19T09:01:25Z</time>
      </trkpt>
      <trkpt lat="47.78906" lon="7.08608">
        <ele>462</ele>
        <time>2015-07-19T09:01:31Z</time>
      </trkpt>
      <trkpt lat="47.7891" lon="7.08596">
        <ele>461.1</ele>
        <time>2015-07-19T09:01:43Z</time>
      </trkpt>
      <trkpt lat="47.78917" lon="7.08586">
        <ele>461</ele>
        <time>2015-07-19T09:01:52Z</time>
      </trkpt>
      <trkpt lat="47.78923" lon="7.08585">
        <ele>461</ele>
        <time>2015-07-19T09:01:56Z</time>
      </trkpt>
      <trkpt lat="47.78928" lon="7.08584">
        <ele>460.5</ele>
        <time>2015-07-19T09:01:59Z</time>
      </trkpt>
      <trkpt lat="47.78931" lon="7.08576">
        <ele>459.3</ele>
        <time>2015-07-19T09:02:11Z</time>
      </trkpt>
      <trkpt lat="47.78937" lon="7.08567">
        <ele>459</ele>
        <time>2015-07-19T09:02:17Z</time>
      </trkpt>
      <trkpt lat="47.78941" lon="7.08562">
        <ele>459</ele>
        <time>2015-07-19T09:02:23Z</time>
      </trkpt>
      <trkpt lat="47.78945" lon="7.08557">
        <ele>459</ele>
        <time>2015-07-19T09:02:28Z</time>
      </trkpt>
      <trkpt lat="47.78948" lon="7.08545">
        <ele>459.5</ele>
        <time>2015-07-19T09:02:40Z</time>
      </trkpt>
      <trkpt lat="47.78949" lon="7.08538">
        <ele>460</ele>
        <time>2015-07-19T09:02:44Z</time>
      </trkpt>
      <trkpt lat="47.78952" lon="7.08525">
        <ele>462.2</ele>
        <time>2015-07-19T09:02:51Z</time>
      </trkpt>
      <trkpt lat="47.78957" lon="7.08521">
        <ele>462.9</ele>
        <time>2015-07-19T09:02:55Z</time>
      </trkpt>
      <trkpt lat="47.78964" lon="7.08516">
        <ele>464</ele>
        <time>2015-07-19T09:03:04Z</time>
      </trkpt>
      <trkpt lat="47.78972" lon="7.08507">
        <ele>464.8</ele>
        <time>2015-07-19T09:03:14Z</time>
      </trkpt>
      <trkpt lat="47.78976" lon="7.08502">
        <ele>465</ele>
        <time>2015-07-19T09:03:18Z</time>
      </trkpt>
      <trkpt lat="47.78979" lon="7.08496">
        <ele>465</ele>
        <time>2015-07-19T09:03:23Z</time>
      </trkpt>
      <trkpt lat="47.78985" lon="7.08493">
        <ele>465</ele>
        <time>2015-07-19T09:03:32Z</time>
      </trkpt>
      <trkpt lat="47.78989" lon="7.08493">
        <ele>465</ele>
        <time>2015-07-19T09:03:34Z</time>
      </trkpt>
      <trkpt lat="47.78995" lon="7.0849">
        <ele>465</ele>
        <time>2015-07-19T09:03:37Z</time>
      </trkpt>
      <trkpt lat="47.78998" lon="7.08485">
        <ele>465.9</ele>
        <time>2015-07-19T09:03:42Z</time>
      </trkpt>
      <trkpt lat="47.78994" lon="7.0849">
        <ele>465</ele>
        <time>2015-07-19T09:03:55Z</time>
      </trkpt>
      <trkpt lat="47.78991" lon="7.08495">
        <ele>465</ele>
        <time>2015-07-19T09:04:05Z</time>
      </trkpt>
      <trkpt lat="47.78995" lon="7.08497">
        <ele>467</ele>
        <time>2015-07-19T09:04:30Z</time>
      </trkpt>
      <trkpt lat="47.79002" lon="7.085">
        <ele>472</ele>
        <time>2015-07-19T09:04:41Z</time>
      </trkpt>
      <trkpt lat="47.78999" lon="7.08504">
        <ele>472</ele>
        <time>2015-07-19T09:04:43Z</time>
      </trkpt>
      <trkpt lat="47.78996" lon="7.0851">
        <ele>472</ele>
        <time>2015-07-19T09:04:46Z</time>
      </trkpt>
      <trkpt lat="47.78999" lon="7.08516">
        <ele>472</ele>
        <time>2015-07-19T09:04:51Z</time>
      </trkpt>
      <trkpt lat="47.79003" lon="7.08518">
        <ele>472</ele>
        <time>2015-07-19T09:04:55Z</time>
      </trkpt>
      <trkpt lat="47.79013" lon="7.08526">
        <ele>473</ele>
        <time>2015-07-19T09:04:59Z</time>
      </trkpt>
      <trkpt lat="47.79026" lon="7.08532">
        <ele>474</ele>
        <time>2015-07-19T09:05:08Z</time>
      </trkpt>
      <trkpt lat="47.79029" lon="7.08538">
        <ele>473.1</ele>
        <time>2015-07-19T09:05:18Z</time>
      </trkpt>
      <trkpt lat="47.79031" lon="7.08544">
        <ele>472</ele>
        <time>2015-07-19T09:05:28Z</time>
      </trkpt>
      <trkpt lat="47.79037" lon="7.08546">
        <ele>472</ele>
        <time>2015-07-19T09:05:32Z</time>
      </trkpt>
      <trkpt lat="47.79045" lon="7.08552">
        <ele>472</ele>
        <time>2015-07-19T09:05:47Z</time>
      </trkpt>
      <trkpt lat="47.79049" lon="7.0856">
        <ele>472</ele>
        <time>2015-07-19T09:05:51Z</time>
      </trkpt>
      <trkpt lat="47.79047" lon="7.08566">
        <ele>472</ele>
        <time>2015-07-19T09:05:56Z</time>
      </trkpt>
      <trkpt lat="47.79044" lon="7.08572">
        <ele>472</ele>
        <time>2015-07-19T09:05:59Z</time>
      </trkpt>
      <trkpt lat="47.79045" lon="7.08586">
        <ele>471.1</ele>
        <time>2015-07-19T09:06:07Z</time>
      </trkpt>
      <trkpt lat="47.79049" lon="7.08593">
        <ele>471</ele>
        <time>2015-07-19T09:06:09Z</time>
      </trkpt>
      <trkpt lat="47.79053" lon="7.08597">
        <ele>471</ele>
        <time>2015-07-19T09:06:13Z</time>
      </trkpt>
      <trkpt lat="47.79058" lon="7.086">
        <ele>471</ele>
        <time>2015-07-19T09:06:19Z</time>
      </trkpt>
      <trkpt lat="47.79057" lon="7.08607">
        <ele>471</ele>
        <time>2015-07-19T09:06:23Z</time>
      </trkpt>
      <trkpt lat="47.79064" lon="7.08617">
        <ele>470</ele>
        <time>2015-07-19T09:06:35Z</time>
      </trkpt>
      <trkpt lat="47.79067" lon="7.08623">
        <ele>470</ele>
        <time>2015-07-19T09:06:39Z</time>
      </trkpt>
      <trkpt lat="47.79069" lon="7.08631">
        <ele>470</ele>
        <time>2015-07-19T09:06:43Z</time>
      </trkpt>
      <trkpt lat="47.79071" lon="7.08638">
        <ele>470</ele>
        <time>2015-07-19T09:06:45Z</time>
      </trkpt>
      <trkpt lat="47.79076" lon="7.08645">
        <ele>470</ele>
        <time>2015-07-19T09:06:53Z</time>
      </trkpt>
      <trkpt lat="47.7908" lon="7.08648">
        <ele>470</ele>
        <time>2015-07-19T09:06:59Z</time>
      </trkpt>
      <trkpt lat="47.79082" lon="7.08656">
        <ele>470</ele>
        <time>2015-07-19T09:07:04Z</time>
      </trkpt>
      <trkpt lat="47.79089" lon="7.08665">
        <ele>470</ele>
        <time>2015-07-19T09:07:13Z</time>
      </trkpt>
      <trkpt lat="47.79088" lon="7.08673">
        <ele>471</ele>
        <time>2015-07-19T09:07:17Z</time>
      </trkpt>
      <trkpt lat="47.79091" lon="7.08681">
        <ele>471</ele>
        <time>2015-07-19T09:07:19Z</time>
      </trkpt>
      <trkpt lat="47.79094" lon="7.08686">
        <ele>471</ele>
        <time>2015-07-19T09:07:26Z</time>
      </trkpt>
      <trkpt lat="47.79093" lon="7.08706">
        <ele>471</ele>
        <time>2015-07-19T09:07:43Z</time>
      </trkpt>
      <trkpt lat="47.79092" lon="7.08713">
        <ele>471</ele>
        <time>2015-07-19T09:07:47Z</time>
      </trkpt>
      <trkpt lat="47.79097" lon="7.08717">
        <ele>471</ele>
        <time>2015-07-19T09:07:52Z</time>
      </trkpt>
      <trkpt lat="47.79094" lon="7.08723">
        <ele>467.3</ele>
        <time>2015-07-19T09:08:00Z</time>
      </trkpt>
      <trkpt lat="47.7909" lon="7.08736">
        <ele>459</ele>
        <time>2015-07-19T09:08:11Z</time>
      </trkpt>
      <trkpt lat="47.79089" lon="7.08743">
        <ele>459</ele>
        <time>2015-07-19T09:08:15Z</time>
      </trkpt>
      <trkpt lat="47.79083" lon="7.08754">
        <ele>458</ele>
        <time>2015-07-19T09:08:25Z</time>
      </trkpt>
      <trkpt lat="47.79086" lon="7.08761">
        <ele>458</ele>
        <time>2015-07-19T09:08:31Z</time>
      </trkpt>
      <trkpt lat="47.79092" lon="7.08773">
        <ele>458</ele>
        <time>2015-07-19T09:08:39Z</time>
      </trkpt>
      <trkpt lat="47.79095" lon="7.0878">
        <ele>457</ele>
        <time>2015-07-19T09:08:43Z</time>
      </trkpt>
      <trkpt lat="47.79096" lon="7.08788">
        <ele>457</ele>
        <time>2015-07-19T09:08:48Z</time>
      </trkpt>
      <trkpt lat="47.79099" lon="7.08795">
        <ele>457</ele>
        <time>2015-07-19T09:08:52Z</time>
      </trkpt>
      <trkpt lat="47.791" lon="7.08802">
        <ele>455.2</ele>
        <time>2015-07-19T09:08:55Z</time>
      </trkpt>
      <trkpt lat="47.79102" lon="7.0881">
        <ele>454.1</ele>
        <time>2015-07-19T09:08:59Z</time>
      </trkpt>
      <trkpt lat="47.79101" lon="7.08824">
        <ele>452.5</ele>
        <time>2015-07-19T09:09:11Z</time>
      </trkpt>
      <trkpt lat="47.79099" lon="7.0883">
        <ele>452</ele>
        <time>2015-07-19T09:09:17Z</time>
      </trkpt>
      <trkpt lat="47.79099" lon="7.08839">
        <ele>452</ele>
        <time>2015-07-19T09:09:25Z</time>
      </trkpt>
      <trkpt lat="47.79103" lon="7.08851">
        <ele>451.2</ele>
        <time>2015-07-19T09:09:32Z</time>
      </trkpt>
      <trkpt lat="47.79105" lon="7.08872">
        <ele>451</ele>
        <time>2015-07-19T09:09:47Z</time>
      </trkpt>
      <trkpt lat="47.79106" lon="7.08885">
        <ele>450.1</ele>
        <time>2015-07-19T09:09:53Z</time>
      </trkpt>
      <trkpt lat="47.79105" lon="7.08895">
        <ele>449</ele>
        <time>2015-07-19T09:09:58Z</time>
      </trkpt>
      <trkpt lat="47.79107" lon="7.089">
        <ele>449</ele>
        <time>2015-07-19T09:10:03Z</time>
      </trkpt>
      <trkpt lat="47.79115" lon="7.08918">
        <ele>449</ele>
        <time>2015-07-19T09:10:14Z</time>
      </trkpt>
      <trkpt lat="47.79116" lon="7.08925">
        <ele>449</ele>
        <time>2015-07-19T09:10:18Z</time>
      </trkpt>
      <trkpt lat="47.79114" lon="7.08939">
        <ele>449</ele>
        <time>2015-07-19T09:10:30Z</time>
      </trkpt>
      <trkpt lat="47.79114" lon="7.08953">
        <ele>449</ele>
        <time>2015-07-19T09:10:38Z</time>
      </trkpt>
      <trkpt lat="47.79114" lon="7.0896">
        <ele>449</ele>
        <time>2015-07-19T09:10:44Z</time>
      </trkpt>
      <trkpt lat="47.79115" lon="7.08968">
        <ele>449</ele>
        <time>2015-07-19T09:10:51Z</time>
      </trkpt>
      <trkpt lat="47.79113" lon="7.08974">
        <ele>449</ele>
        <time>2015-07-19T09:10:57Z</time>
      </trkpt>
      <trkpt lat="47.79118" lon="7.08987">
        <ele>449</ele>
        <time>2015-07-19T09:11:08Z</time>
      </trkpt>
      <trkpt lat="47.79121" lon="7.08999">
        <ele>449</ele>
        <time>2015-07-19T09:11:16Z</time>
      </trkpt>
      <trkpt lat="47.79122" lon="7.09007">
        <ele>449.9</ele>
        <time>2015-07-19T09:11:20Z</time>
      </trkpt>
      <trkpt lat="47.79125" lon="7.09012">
        <ele>449.9</ele>
        <time>2015-07-19T09:11:24Z</time>
      </trkpt>
      <trkpt lat="47.79122" lon="7.09003">
        <ele>450</ele>
        <time>2015-07-19T09:11:33Z</time>
      </trkpt>
      <trkpt lat="47.79121" lon="7.0901">
        <ele>450</ele>
        <time>2015-07-19T09:11:47Z</time>
      </trkpt>
      <trkpt lat="47.79125" lon="7.09023">
        <ele>450</ele>
        <time>2015-07-19T09:11:54Z</time>
      </trkpt>
      <trkpt lat="47.79125" lon="7.09032">
        <ele>450</ele>
        <time>2015-07-19T09:11:57Z</time>
      </trkpt>
      <trkpt lat="47.79124" lon="7.0904">
        <ele>450</ele>
        <time>2015-07-19T09:12:00Z</time>
      </trkpt>
      <trkpt lat="47.79127" lon="7.09061">
        <ele>450</ele>
        <time>2015-07-19T09:12:11Z</time>
      </trkpt>
      <trkpt lat="47.79127" lon="7.09068">
        <ele>447.3</ele>
        <time>2015-07-19T09:12:17Z</time>
      </trkpt>
      <trkpt lat="47.7913" lon="7.09075">
        <ele>447.1</ele>
        <time>2015-07-19T09:12:23Z</time>
      </trkpt>
      <trkpt lat="47.79134" lon="7.0908">
        <ele>446.5</ele>
        <time>2015-07-19T09:12:27Z</time>
      </trkpt>
      <trkpt lat="47.79133" lon="7.09088">
        <ele>446</ele>
        <time>2015-07-19T09:12:31Z</time>
      </trkpt>
      <trkpt lat="47.79131" lon="7.09095">
        <ele>446</ele>
        <time>2015-07-19T09:12:36Z</time>
      </trkpt>
      <trkpt lat="47.79125" lon="7.09097">
        <ele>445.1</ele>
        <time>2015-07-19T09:12:44Z</time>
      </trkpt>
      <trkpt lat="47.79121" lon="7.09096">
        <ele>444.5</ele>
        <time>2015-07-19T09:12:47Z</time>
      </trkpt>
      <trkpt lat="47.79119" lon="7.09103">
        <ele>444</ele>
        <time>2015-07-19T09:12:56Z</time>
      </trkpt>
      <trkpt lat="47.79118" lon="7.09095">
        <ele>441</ele>
        <time>2015-07-19T09:13:10Z</time>
      </trkpt>
      <trkpt lat="47.79111" lon="7.09086">
        <ele>437</ele>
        <time>2015-07-19T09:13:32Z</time>
      </trkpt>
      <trkpt lat="47.79108" lon="7.09092">
        <ele>437</ele>
        <time>2015-07-19T09:13:56Z</time>
      </trkpt>
      <trkpt lat="47.79113" lon="7.09093">
        <ele>437</ele>
        <time>2015-07-19T09:14:03Z</time>
      </trkpt>
      <trkpt lat="47.79119" lon="7.09094">
        <ele>437</ele>
        <time>2015-07-19T09:14:07Z</time>
      </trkpt>
      <trkpt lat="47.79125" lon="7.09098">
        <ele>437</ele>
        <time>2015-07-19T09:14:11Z</time>
      </trkpt>
      <trkpt lat="47.79131" lon="7.09105">
        <ele>436.1</ele>
        <time>2015-07-19T09:14:15Z</time>
      </trkpt>
      <trkpt lat="47.79135" lon="7.09108">
        <ele>436.1</ele>
        <time>2015-07-19T09:14:19Z</time>
      </trkpt>
      <trkpt lat="47.79134" lon="7.09115">
        <ele>435.3</ele>
        <time>2015-07-19T09:14:24Z</time>
      </trkpt>
      <trkpt lat="47.79131" lon="7.09129">
        <ele>435</ele>
        <time>2015-07-19T09:14:31Z</time>
      </trkpt>
      <trkpt lat="47.79125" lon="7.09143">
        <ele>435</ele>
        <time>2015-07-19T09:14:36Z</time>
      </trkpt>
      <trkpt lat="47.79122" lon="7.0915">
        <ele>435</ele>
        <time>2015-07-19T09:14:39Z</time>
      </trkpt>
      <trkpt lat="47.7912" lon="7.09157">
        <ele>435</ele>
        <time>2015-07-19T09:14:41Z</time>
      </trkpt>
      <trkpt lat="47.79122" lon="7.09163">
        <ele>435</ele>
        <time>2015-07-19T09:14:55Z</time>
      </trkpt>
      <trkpt lat="47.79124" lon="7.09155">
        <ele>441</ele>
        <time>2015-07-19T09:15:11Z</time>
      </trkpt>
      <trkpt lat="47.79129" lon="7.09158">
        <ele>441</ele>
        <time>2015-07-19T09:15:17Z</time>
      </trkpt>
      <trkpt lat="47.79132" lon="7.09163">
        <ele>441</ele>
        <time>2015-07-19T09:15:22Z</time>
      </trkpt>
      <trkpt lat="47.79134" lon="7.0917">
        <ele>441</ele>
        <time>2015-07-19T09:15:31Z</time>
      </trkpt>
      <trkpt lat="47.79131" lon="7.09176">
        <ele>441</ele>
        <time>2015-07-19T09:15:38Z</time>
      </trkpt>
      <trkpt lat="47.79131" lon="7.09183">
        <ele>440.2</ele>
        <time>2015-07-19T09:15:47Z</time>
      </trkpt>
      <trkpt lat="47.7913" lon="7.0919">
        <ele>439.3</ele>
        <time>2015-07-19T09:15:53Z</time>
      </trkpt>
      <trkpt lat="47.79122" lon="7.09207">
        <ele>437.1</ele>
        <time>2015-07-19T09:16:07Z</time>
      </trkpt>
      <trkpt lat="47.79122" lon="7.09213">
        <ele>437</ele>
        <time>2015-07-19T09:16:12Z</time>
      </trkpt>
      <trkpt lat="47.79123" lon="7.09227">
        <ele>436.5</ele>
        <time>2015-07-19T09:16:21Z</time>
      </trkpt>
      <trkpt lat="47.79122" lon="7.09235">
        <ele>436</ele>
        <time>2015-07-19T09:16:23Z</time>
      </trkpt>
      <trkpt lat="47.79124" lon="7.09242">
        <ele>436</ele>
        <time>2015-07-19T09:16:28Z</time>
      </trkpt>
      <trkpt lat="47.79122" lon="7.09249">
        <ele>436</ele>
        <time>2015-07-19T09:16:35Z</time>
      </trkpt>
      <trkpt lat="47.79119" lon="7.09256">
        <ele>435.5</ele>
        <time>2015-07-19T09:16:41Z</time>
      </trkpt>
      <trkpt lat="47.79119" lon="7.09264">
        <ele>435</ele>
        <time>2015-07-19T09:16:48Z</time>
      </trkpt>
      <trkpt lat="47.79121" lon="7.09277">
        <ele>433.5</ele>
        <time>2015-07-19T09:16:57Z</time>
      </trkpt>
      <trkpt lat="47.79124" lon="7.09291">
        <ele>433</ele>
        <time>2015-07-19T09:17:04Z</time>
      </trkpt>
      <trkpt lat="47.79122" lon="7.09297">
        <ele>433</ele>
        <time>2015-07-19T09:17:08Z</time>
      </trkpt>
      <trkpt lat="47.79122" lon="7.09305">
        <ele>433</ele>
        <time>2015-07-19T09:17:13Z</time>
      </trkpt>
      <trkpt lat="47.79125" lon="7.09311">
        <ele>431.5</ele>
        <time>2015-07-19T09:17:22Z</time>
      </trkpt>
      <trkpt lat="47.79122" lon="7.09318">
        <ele>430.5</ele>
        <time>2015-07-19T09:17:27Z</time>
      </trkpt>
      <trkpt lat="47.7912" lon="7.09324">
        <ele>428</ele>
        <time>2015-07-19T09:17:33Z</time>
      </trkpt>
      <trkpt lat="47.79121" lon="7.0933">
        <ele>428</ele>
        <time>2015-07-19T09:17:38Z</time>
      </trkpt>
      <trkpt lat="47.79126" lon="7.09333">
        <ele>428</ele>
        <time>2015-07-19T09:17:43Z</time>
      </trkpt>
      <trkpt lat="47.7912" lon="7.09323">
        <ele>427</ele>
        <time>2015-07-19T09:17:54Z</time>
      </trkpt>
      <trkpt lat="47.79115" lon="7.09318">
        <ele>427</ele>
        <time>2015-07-19T09:17:56Z</time>
      </trkpt>
      <trkpt lat="47.79112" lon="7.0931">
        <ele>426</ele>
        <time>2015-07-19T09:18:01Z</time>
      </trkpt>
      <trkpt lat="47.79108" lon="7.09306">
        <ele>426</ele>
        <time>2015-07-19T09:18:03Z</time>
      </trkpt>
      <trkpt lat="47.79104" lon="7.09302">
        <ele>426</ele>
        <time>2015-07-19T09:18:05Z</time>
      </trkpt>
      <trkpt lat="47.79102" lon="7.09295">
        <ele>426</ele>
        <time>2015-07-19T09:18:09Z</time>
      </trkpt>
      <trkpt lat="47.79106" lon="7.09296">
        <ele>423</ele>
        <time>2015-07-19T09:18:31Z</time>
      </trkpt>
      <trkpt lat="47.79111" lon="7.09291">
        <ele>421.3</ele>
        <time>2015-07-19T09:18:35Z</time>
      </trkpt>
      <trkpt lat="47.79111" lon="7.09284">
        <ele>421</ele>
        <time>2015-07-19T09:18:38Z</time>
      </trkpt>
      <trkpt lat="47.79111" lon="7.09277">
        <ele>421</ele>
        <time>2015-07-19T09:18:41Z</time>
      </trkpt>
      <trkpt lat="47.7911" lon="7.0927">
        <ele>419.1</ele>
        <time>2015-07-19T09:18:44Z</time>
      </trkpt>
      <trkpt lat="47.79103" lon="7.09259">
        <ele>419</ele>
        <time>2015-07-19T09:18:52Z</time>
      </trkpt>
      <trkpt lat="47.79099" lon="7.09255">
        <ele>419</ele>
        <time>2015-07-19T09:18:55Z</time>
      </trkpt>
      <trkpt lat="47.79097" lon="7.09248">
        <ele>419</ele>
        <time>2015-07-19T09:18:59Z</time>
      </trkpt>
      <trkpt lat="47.79098" lon="7.09241">
        <ele>419</ele>
        <time>2015-07-19T09:19:03Z</time>
      </trkpt>
      <trkpt lat="47.79098" lon="7.09226">
        <ele>419</ele>
        <time>2015-07-19T09:19:12Z</time>
      </trkpt>
      <trkpt lat="47.79098" lon="7.09219">
        <ele>419</ele>
        <time>2015-07-19T09:19:21Z</time>
      </trkpt>
      <trkpt lat="47.79095" lon="7.09212">
        <ele>419.8</ele>
        <time>2015-07-19T09:19:27Z</time>
      </trkpt>
      <trkpt lat="47.79092" lon="7.09206">
        <ele>420</ele>
        <time>2015-07-19T09:19:29Z</time>
      </trkpt>
      <trkpt lat="47.79092" lon="7.09199">
        <ele>420</ele>
        <time>2015-07-19T09:19:33Z</time>
      </trkpt>
      <trkpt lat="47.7909" lon="7.09192">
        <ele>423.9</ele>
        <time>2015-07-19T09:19:38Z</time>
      </trkpt>
      <trkpt lat="47.79091" lon="7.09184">
        <ele>424.9</ele>
        <time>2015-07-19T09:19:43Z</time>
      </trkpt>
      <trkpt lat="47.79088" lon="7.09171">
        <ele>425</ele>
        <time>2015-07-19T09:19:52Z</time>
      </trkpt>
      <trkpt lat="47.79087" lon="7.09164">
        <ele>425</ele>
        <time>2015-07-19T09:19:58Z</time>
      </trkpt>
      <trkpt lat="47.79087" lon="7.09143">
        <ele>425</ele>
        <time>2015-07-19T09:20:09Z</time>
      </trkpt>
      <trkpt lat="47.79089" lon="7.09136">
        <ele>425</ele>
        <time>2015-07-19T09:20:15Z</time>
      </trkpt>
      <trkpt lat="47.79088" lon="7.09128">
        <ele>424</ele>
        <time>2015-07-19T09:20:23Z</time>
      </trkpt>
      <trkpt lat="47.79086" lon="7.09119">
        <ele>424</ele>
        <time>2015-07-19T09:20:27Z</time>
      </trkpt>
      <trkpt lat="47.79084" lon="7.09112">
        <ele>424</ele>
        <time>2015-07-19T09:20:33Z</time>
      </trkpt>
      <trkpt lat="47.79085" lon="7.09105">
        <ele>424</ele>
        <time>2015-07-19T09:20:43Z</time>
      </trkpt>
      <trkpt lat="47.79082" lon="7.09098">
        <ele>423.5</ele>
        <time>2015-07-19T09:20:47Z</time>
      </trkpt>
      <trkpt lat="47.79079" lon="7.09092">
        <ele>423</ele>
        <time>2015-07-19T09:20:53Z</time>
      </trkpt>
      <trkpt lat="47.79072" lon="7.0908">
        <ele>423</ele>
        <time>2015-07-19T09:21:00Z</time>
      </trkpt>
      <trkpt lat="47.7907" lon="7.09068">
        <ele>423</ele>
        <time>2015-07-19T09:21:05Z</time>
      </trkpt>
      <trkpt lat="47.79067" lon="7.09062">
        <ele>423</ele>
        <time>2015-07-19T09:21:08Z</time>
      </trkpt>
      <trkpt lat="47.79057" lon="7.09046">
        <ele>424</ele>
        <time>2015-07-19T09:21:16Z</time>
      </trkpt>
      <trkpt lat="47.79048" lon="7.0903">
        <ele>424</ele>
        <time>2015-07-19T09:21:23Z</time>
      </trkpt>
      <trkpt lat="47.79047" lon="7.09023">
        <ele>424</ele>
        <time>2015-07-19T09:21:26Z</time>
      </trkpt>
      <trkpt lat="47.79045" lon="7.09016">
        <ele>424</ele>
        <time>2015-07-19T09:21:32Z</time>
      </trkpt>
      <trkpt lat="47.79032" lon="7.09013">
        <ele>424</ele>
        <time>2015-07-19T09:21:40Z</time>
      </trkpt>
      <trkpt lat="47.79022" lon="7.09015">
        <ele>424.9</ele>
        <time>2015-07-19T09:21:47Z</time>
      </trkpt>
      <trkpt lat="47.79023" lon="7.09022">
        <ele>425</ele>
        <time>2015-07-19T09:21:51Z</time>
      </trkpt>
      <trkpt lat="47.79027" lon="7.09028">
        <ele>425</ele>
        <time>2015-07-19T09:21:56Z</time>
      </trkpt>
      <trkpt lat="47.79023" lon="7.09032">
        <ele>425</ele>
        <time>2015-07-19T09:22:01Z</time>
      </trkpt>
      <trkpt lat="47.79017" lon="7.09034">
        <ele>425</ele>
        <time>2015-07-19T09:22:05Z</time>
      </trkpt>
      <trkpt lat="47.79003" lon="7.09036">
        <ele>424</ele>
        <time>2015-07-19T09:22:14Z</time>
      </trkpt>
      <trkpt lat="47.7899" lon="7.09041">
        <ele>424.9</ele>
        <time>2015-07-19T09:22:25Z</time>
      </trkpt>
      <trkpt lat="47.78985" lon="7.09044">
        <ele>425</ele>
        <time>2015-07-19T09:22:29Z</time>
      </trkpt>
      <trkpt lat="47.78978" lon="7.09053">
        <ele>425</ele>
        <time>2015-07-19T09:22:34Z</time>
      </trkpt>
      <trkpt lat="47.78974" lon="7.09058">
        <ele>424.2</ele>
        <time>2015-07-19T09:22:37Z</time>
      </trkpt>
      <trkpt lat="47.78966" lon="7.09064">
        <ele>423.3</ele>
        <time>2015-07-19T09:22:44Z</time>
      </trkpt>
      <trkpt lat="47.78961" lon="7.09065">
        <ele>423</ele>
        <time>2015-07-19T09:22:54Z</time>
      </trkpt>
      <trkpt lat="47.78956" lon="7.09065">
        <ele>423</ele>
        <time>2015-07-19T09:23:02Z</time>
      </trkpt>
      <trkpt lat="47.7895" lon="7.09066">
        <ele>423.8</ele>
        <time>2015-07-19T09:23:04Z</time>
      </trkpt>
      <trkpt lat="47.78946" lon="7.09069">
        <ele>423.8</ele>
        <time>2015-07-19T09:23:07Z</time>
      </trkpt>
      <trkpt lat="47.78943" lon="7.09074">
        <ele>424</ele>
        <time>2015-07-19T09:23:11Z</time>
      </trkpt>
      <trkpt lat="47.78939" lon="7.09077">
        <ele>424</ele>
        <time>2015-07-19T09:23:18Z</time>
      </trkpt>
      <trkpt lat="47.78934" lon="7.09079">
        <ele>424</ele>
        <time>2015-07-19T09:23:23Z</time>
      </trkpt>
      <trkpt lat="47.7893" lon="7.09081">
        <ele>424</ele>
        <time>2015-07-19T09:23:31Z</time>
      </trkpt>
      <trkpt lat="47.7892" lon="7.0908">
        <ele>424</ele>
        <time>2015-07-19T09:23:38Z</time>
      </trkpt>
      <trkpt lat="47.78915" lon="7.09077">
        <ele>426.8</ele>
        <time>2015-07-19T09:23:42Z</time>
      </trkpt>
      <trkpt lat="47.7891" lon="7.09081">
        <ele>427</ele>
        <time>2015-07-19T09:23:45Z</time>
      </trkpt>
      <trkpt lat="47.78905" lon="7.09082">
        <ele>427</ele>
        <time>2015-07-19T09:23:56Z</time>
      </trkpt>
      <trkpt lat="47.78897" lon="7.09073">
        <ele>427</ele>
        <time>2015-07-19T09:24:03Z</time>
      </trkpt>
      <trkpt lat="47.78888" lon="7.09072">
        <ele>427</ele>
        <time>2015-07-19T09:24:11Z</time>
      </trkpt>
      <trkpt lat="47.78883" lon="7.09067">
        <ele>427</ele>
        <time>2015-07-19T09:24:13Z</time>
      </trkpt>
      <trkpt lat="47.78879" lon="7.09062">
        <ele>427</ele>
        <time>2015-07-19T09:24:16Z</time>
      </trkpt>
      <trkpt lat="47.78874" lon="7.09066">
        <ele>427</ele>
        <time>2015-07-19T09:24:20Z</time>
      </trkpt>
      <trkpt lat="47.78872" lon="7.09074">
        <ele>427</ele>
        <time>2015-07-19T09:24:27Z</time>
      </trkpt>
      <trkpt lat="47.78867" lon="7.09075">
        <ele>427</ele>
        <time>2015-07-19T09:24:31Z</time>
      </trkpt>
      <trkpt lat="47.78854" lon="7.09086">
        <ele>427</ele>
        <time>2015-07-19T09:24:38Z</time>
      </trkpt>
      <trkpt lat="47.78848" lon="7.09094">
        <ele>427</ele>
        <time>2015-07-19T09:24:43Z</time>
      </trkpt>
      <trkpt lat="47.78843" lon="7.09098">
        <ele>427</ele>
        <time>2015-07-19T09:24:47Z</time>
      </trkpt>
      <trkpt lat="47.78842" lon="7.0911">
        <ele>427.9</ele>
        <time>2015-07-19T09:24:55Z</time>
      </trkpt>
      <trkpt lat="47.78837" lon="7.09115">
        <ele>428</ele>
        <time>2015-07-19T09:25:04Z</time>
      </trkpt>
      <trkpt lat="47.78832" lon="7.09118">
        <ele>428</ele>
        <time>2015-07-19T09:25:08Z</time>
      </trkpt>
      <trkpt lat="47.78819" lon="7.09129">
        <ele>429</ele>
        <time>2015-07-19T09:25:20Z</time>
      </trkpt>
      <trkpt lat="47.78814" lon="7.09132">
        <ele>429.7</ele>
        <time>2015-07-19T09:25:27Z</time>
      </trkpt>
      <trkpt lat="47.78808" lon="7.09133">
        <ele>431</ele>
        <time>2015-07-19T09:25:33Z</time>
      </trkpt>
      <trkpt lat="47.78803" lon="7.09132">
        <ele>431</ele>
        <time>2015-07-19T09:25:35Z</time>
      </trkpt>
      <trkpt lat="47.78795" lon="7.09131">
        <ele>431</ele>
        <time>2015-07-19T09:25:40Z</time>
      </trkpt>
      <trkpt lat="47.78791" lon="7.09126">
        <ele>431</ele>
        <time>2015-07-19T09:25:44Z</time>
      </trkpt>
      <trkpt lat="47.78781" lon="7.0912">
        <ele>431</ele>
        <time>2015-07-19T09:25:49Z</time>
      </trkpt>
      <trkpt lat="47.78771" lon="7.0911">
        <ele>431</ele>
        <time>2015-07-19T09:25:54Z</time>
      </trkpt>
      <trkpt lat="47.78774" lon="7.09105">
        <ele>431</ele>
        <time>2015-07-19T09:25:59Z</time>
      </trkpt>
      <trkpt lat="47.78773" lon="7.09097">
        <ele>430</ele>
        <time>2015-07-19T09:26:11Z</time>
      </trkpt>
      <trkpt lat="47.78766" lon="7.09085">
        <ele>430</ele>
        <time>2015-07-19T09:26:17Z</time>
      </trkpt>
      <trkpt lat="47.78762" lon="7.0909">
        <ele>430</ele>
        <time>2015-07-19T09:26:24Z</time>
      </trkpt>
      <trkpt lat="47.78764" lon="7.09083">
        <ele>429</ele>
        <time>2015-07-19T09:26:47Z</time>
      </trkpt>
      <trkpt lat="47.78761" lon="7.09078">
        <ele>429</ele>
        <time>2015-07-19T09:26:51Z</time>
      </trkpt>
      <trkpt lat="47.78756" lon="7.09076">
        <ele>429</ele>
        <time>2015-07-19T09:26:54Z</time>
      </trkpt>
      <trkpt lat="47.78753" lon="7.09069">
        <ele>427.4</ele>
        <time>2015-07-19T09:27:03Z</time>
      </trkpt>
      <trkpt lat="47.7875" lon="7.09064">
        <ele>426</ele>
        <time>2015-07-19T09:27:05Z</time>
      </trkpt>
      <trkpt lat="47.78746" lon="7.09061">
        <ele>426</ele>
        <time>2015-07-19T09:27:08Z</time>
      </trkpt>
      <trkpt lat="47.78741" lon="7.0906">
        <ele>425.5</ele>
        <time>2015-07-19T09:27:12Z</time>
      </trkpt>
      <trkpt lat="47.78735" lon="7.09059">
        <ele>425</ele>
        <time>2015-07-19T09:27:18Z</time>
      </trkpt>
      <trkpt lat="47.7873" lon="7.09056">
        <ele>425</ele>
        <time>2015-07-19T09:27:23Z</time>
      </trkpt>
      <trkpt lat="47.78726" lon="7.09052">
        <ele>425</ele>
        <time>2015-07-19T09:27:28Z</time>
      </trkpt>
      <trkpt lat="47.7872" lon="7.09051">
        <ele>424</ele>
        <time>2015-07-19T09:27:36Z</time>
      </trkpt>
      <trkpt lat="47.78714" lon="7.09049">
        <ele>424</ele>
        <time>2015-07-19T09:27:39Z</time>
      </trkpt>
      <trkpt lat="47.7871" lon="7.09045">
        <ele>424</ele>
        <time>2015-07-19T09:27:43Z</time>
      </trkpt>
      <trkpt lat="47.78705" lon="7.09042">
        <ele>423.5</ele>
        <time>2015-07-19T09:27:45Z</time>
      </trkpt>
      <trkpt lat="47.78701" lon="7.09042">
        <ele>423.5</ele>
        <time>2015-07-19T09:27:49Z</time>
      </trkpt>
      <trkpt lat="47.78696" lon="7.09043">
        <ele>423</ele>
        <time>2015-07-19T09:27:54Z</time>
      </trkpt>
      <trkpt lat="47.78687" lon="7.09045">
        <ele>422.1</ele>
        <time>2015-07-19T09:28:01Z</time>
      </trkpt>
      <trkpt lat="47.78682" lon="7.09037">
        <ele>422</ele>
        <time>2015-07-19T09:28:09Z</time>
      </trkpt>
      <trkpt lat="47.78678" lon="7.09035">
        <ele>422</ele>
        <time>2015-07-19T09:28:29Z</time>
      </trkpt>
      <trkpt lat="47.78673" lon="7.09035">
        <ele>423.9</ele>
        <time>2015-07-19T09:28:33Z</time>
      </trkpt>
      <trkpt lat="47.78669" lon="7.0904">
        <ele>424</ele>
        <time>2015-07-19T09:28:39Z</time>
      </trkpt>
      <trkpt lat="47.78667" lon="7.09046">
        <ele>424</ele>
        <time>2015-07-19T09:28:48Z</time>
      </trkpt>
      <trkpt lat="47.78657" lon="7.09046">
        <ele>424</ele>
        <time>2015-07-19T09:28:59Z</time>
      </trkpt>
      <trkpt lat="47.78659" lon="7.0906">
        <ele>423.2</ele>
        <time>2015-07-19T09:29:09Z</time>
      </trkpt>
      <trkpt lat="47.78654" lon="7.09057">
        <ele>423</ele>
        <time>2015-07-19T09:29:20Z</time>
      </trkpt>
      <trkpt lat="47.78649" lon="7.09055">
        <ele>421.5</ele>
        <time>2015-07-19T09:29:24Z</time>
      </trkpt>
      <trkpt lat="47.78644" lon="7.09054">
        <ele>421.1</ele>
        <time>2015-07-19T09:29:29Z</time>
      </trkpt>
      <trkpt lat="47.78639" lon="7.09052">
        <ele>420.1</ele>
        <time>2015-07-19T09:29:32Z</time>
      </trkpt>
      <trkpt lat="47.78634" lon="7.09054">
        <ele>419.3</ele>
        <time>2015-07-19T09:29:38Z</time>
      </trkpt>
      <trkpt lat="47.7863" lon="7.09057">
        <ele>417.5</ele>
        <time>2015-07-19T09:29:46Z</time>
      </trkpt>
      <trkpt lat="47.78625" lon="7.09059">
        <ele>415.4</ele>
        <time>2015-07-19T09:29:51Z</time>
      </trkpt>
      <trkpt lat="47.78623" lon="7.09065">
        <ele>415</ele>
        <time>2015-07-19T09:29:56Z</time>
      </trkpt>
      <trkpt lat="47.78621" lon="7.0908">
        <ele>414.3</ele>
        <time>2015-07-19T09:30:04Z</time>
      </trkpt>
      <trkpt lat="47.78617" lon="7.09095">
        <ele>414</ele>
        <time>2015-07-19T09:30:12Z</time>
      </trkpt>
      <trkpt lat="47.78614" lon="7.09116">
        <ele>413</ele>
        <time>2015-07-19T09:30:24Z</time>
      </trkpt>
      <trkpt lat="47.78611" lon="7.09122">
        <ele>413</ele>
        <time>2015-07-19T09:30:28Z</time>
      </trkpt>
      <trkpt lat="47.78606" lon="7.09127">
        <ele>412</ele>
        <time>2015-07-19T09:30:51Z</time>
      </trkpt>
      <trkpt lat="47.78604" lon="7.0914">
        <ele>412</ele>
        <time>2015-07-19T09:30:58Z</time>
      </trkpt>
      <trkpt lat="47.78606" lon="7.09148">
        <ele>412</ele>
        <time>2015-07-19T09:31:03Z</time>
      </trkpt>
      <trkpt lat="47.78608" lon="7.09154">
        <ele>412</ele>
        <time>2015-07-19T09:31:07Z</time>
      </trkpt>
      <trkpt lat="47.78606" lon="7.09162">
        <ele>412</ele>
        <time>2015-07-19T09:31:13Z</time>
      </trkpt>
      <trkpt lat="47.78604" lon="7.09168">
        <ele>412</ele>
        <time>2015-07-19T09:31:19Z</time>
      </trkpt>
      <trkpt lat="47.78602" lon="7.09175">
        <ele>411.1</ele>
        <time>2015-07-19T09:31:23Z</time>
      </trkpt>
      <trkpt lat="47.786" lon="7.09182">
        <ele>411</ele>
        <time>2015-07-19T09:31:28Z</time>
      </trkpt>
      <trkpt lat="47.78599" lon="7.09189">
        <ele>411</ele>
        <time>2015-07-19T09:31:31Z</time>
      </trkpt>
      <trkpt lat="47.78594" lon="7.09204">
        <ele>410.1</ele>
        <time>2015-07-19T09:31:39Z</time>
      </trkpt>
      <trkpt lat="47.7859" lon="7.09221">
        <ele>407.1</ele>
        <time>2015-07-19T09:31:50Z</time>
      </trkpt>
      <trkpt lat="47.78591" lon="7.09229">
        <ele>407</ele>
        <time>2015-07-19T09:31:57Z</time>
      </trkpt>
      <trkpt lat="47.78587" lon="7.09234">
        <ele>407</ele>
        <time>2015-07-19T09:32:01Z</time>
      </trkpt>
      <trkpt lat="47.78585" lon="7.09241">
        <ele>407</ele>
        <time>2015-07-19T09:32:07Z</time>
      </trkpt>
      <trkpt lat="47.78587" lon="7.09248">
        <ele>407</ele>
        <time>2015-07-19T09:32:20Z</time>
      </trkpt>
      <trkpt lat="47.78584" lon="7.09255">
        <ele>406.1</ele>
        <time>2015-07-19T09:32:25Z</time>
      </trkpt>
      <trkpt lat="47.78584" lon="7.09263">
        <ele>406</ele>
        <time>2015-07-19T09:32:30Z</time>
      </trkpt>
      <trkpt lat="47.78581" lon="7.09283">
        <ele>405.1</ele>
        <time>2015-07-19T09:32:41Z</time>
      </trkpt>
      <trkpt lat="47.78581" lon="7.09291">
        <ele>404.3</ele>
        <time>2015-07-19T09:32:47Z</time>
      </trkpt>
      <trkpt lat="47.78579" lon="7.09298">
        <ele>404.1</ele>
        <time>2015-07-19T09:32:52Z</time>
      </trkpt>
      <trkpt lat="47.78577" lon="7.09306">
        <ele>401.2</ele>
        <time>2015-07-19T09:32:57Z</time>
      </trkpt>
      <trkpt lat="47.78573" lon="7.09311">
        <ele>401</ele>
        <time>2015-07-19T09:33:04Z</time>
      </trkpt>
      <trkpt lat="47.78572" lon="7.09318">
        <ele>401</ele>
        <time>2015-07-19T09:33:08Z</time>
      </trkpt>
      <trkpt lat="47.78574" lon="7.09333">
        <ele>399.5</ele>
        <time>2015-07-19T09:33:17Z</time>
      </trkpt>
      <trkpt lat="47.78571" lon="7.09346">
        <ele>397</ele>
        <time>2015-07-19T09:33:48Z</time>
      </trkpt>
      <trkpt lat="47.7857" lon="7.09354">
        <ele>397</ele>
        <time>2015-07-19T09:33:53Z</time>
      </trkpt>
      <trkpt lat="47.78566" lon="7.09358">
        <ele>397</ele>
        <time>2015-07-19T09:34:10Z</time>
      </trkpt>
      <trkpt lat="47.78565" lon="7.09372">
        <ele>397</ele>
        <time>2015-07-19T09:34:19Z</time>
      </trkpt>
      <trkpt lat="47.78562" lon="7.09385">
        <ele>397</ele>
        <time>2015-07-19T09:34:25Z</time>
      </trkpt>
      <trkpt lat="47.78561" lon="7.09392">
        <ele>397</ele>
        <time>2015-07-19T09:34:33Z</time>
      </trkpt>
      <trkpt lat="47.78556" lon="7.09394">
        <ele>397</ele>
        <time>2015-07-19T09:34:37Z</time>
      </trkpt>
      <trkpt lat="47.78551" lon="7.09392">
        <ele>397</ele>
        <time>2015-07-19T09:34:42Z</time>
      </trkpt>
      <trkpt lat="47.78546" lon="7.09389">
        <ele>397</ele>
        <time>2015-07-19T09:34:46Z</time>
      </trkpt>
      <trkpt lat="47.78541" lon="7.09384">
        <ele>397</ele>
        <time>2015-07-19T09:34:54Z</time>
      </trkpt>
      <trkpt lat="47.78538" lon="7.09379">
        <ele>396.2</ele>
        <time>2015-07-19T09:34:59Z</time>
      </trkpt>
      <trkpt lat="47.78534" lon="7.09375">
        <ele>396.2</ele>
        <time>2015-07-19T09:35:02Z</time>
      </trkpt>
      <trkpt lat="47.78528" lon="7.09367">
        <ele>395</ele>
        <time>2015-07-19T09:35:08Z</time>
      </trkpt>
      <trkpt lat="47.78523" lon="7.09365">
        <ele>395</ele>
        <time>2015-07-19T09:35:13Z</time>
      </trkpt>
      <trkpt lat="47.78519" lon="7.09362">
        <ele>395</ele>
        <time>2015-07-19T09:35:17Z</time>
      </trkpt>
      <trkpt lat="47.78512" lon="7.09353">
        <ele>394.1</ele>
        <time>2015-07-19T09:35:24Z</time>
      </trkpt>
      <trkpt lat="47.78509" lon="7.09346">
        <ele>394</ele>
        <time>2015-07-19T09:35:28Z</time>
      </trkpt>
      <trkpt lat="47.78505" lon="7.09341">
        <ele>393.1</ele>
        <time>2015-07-19T09:35:33Z</time>
      </trkpt>
      <trkpt lat="47.78502" lon="7.09335">
        <ele>393.1</ele>
        <time>2015-07-19T09:35:37Z</time>
      </trkpt>
      <trkpt lat="47.78498" lon="7.09329">
        <ele>393</ele>
        <time>2015-07-19T09:35:41Z</time>
      </trkpt>
      <trkpt lat="47.78492" lon="7.09319">
        <ele>392</ele>
        <time>2015-07-19T09:35:51Z</time>
      </trkpt>
      <trkpt lat="47.78489" lon="7.09312">
        <ele>391.3</ele>
        <time>2015-07-19T09:35:57Z</time>
      </trkpt>
      <trkpt lat="47.78485" lon="7.09308">
        <ele>391</ele>
        <time>2015-07-19T09:36:01Z</time>
      </trkpt>
      <trkpt lat="47.78482" lon="7.09304">
        <ele>391</ele>
        <time>2015-07-19T09:36:05Z</time>
      </trkpt>
      <trkpt lat="47.78478" lon="7.09297">
        <ele>390.1</ele>
        <time>2015-07-19T09:36:09Z</time>
      </trkpt>
      <trkpt lat="47.78475" lon="7.09292">
        <ele>390.1</ele>
        <time>2015-07-19T09:36:13Z</time>
      </trkpt>
      <trkpt lat="47.78465" lon="7.09284">
        <ele>389.1</ele>
        <time>2015-07-19T09:36:20Z</time>
      </trkpt>
      <trkpt lat="47.7846" lon="7.09281">
        <ele>389</ele>
        <time>2015-07-19T09:36:22Z</time>
      </trkpt>
      <trkpt lat="47.78457" lon="7.09275">
        <ele>389</ele>
        <time>2015-07-19T09:36:25Z</time>
      </trkpt>
      <trkpt lat="47.78455" lon="7.09267">
        <ele>388.2</ele>
        <time>2015-07-19T09:36:31Z</time>
      </trkpt>
      <trkpt lat="47.78452" lon="7.09258">
        <ele>388</ele>
        <time>2015-07-19T09:36:36Z</time>
      </trkpt>
      <trkpt lat="47.78448" lon="7.09258">
        <ele>388</ele>
        <time>2015-07-19T09:36:44Z</time>
      </trkpt>
      <trkpt lat="47.78443" lon="7.0926">
        <ele>388</ele>
        <time>2015-07-19T09:36:49Z</time>
      </trkpt>
      <trkpt lat="47.78436" lon="7.09263">
        <ele>388</ele>
        <time>2015-07-19T09:36:55Z</time>
      </trkpt>
      <trkpt lat="47.78431" lon="7.09261">
        <ele>388</ele>
        <time>2015-07-19T09:37:00Z</time>
      </trkpt>
      <trkpt lat="47.78426" lon="7.09257">
        <ele>388</ele>
        <time>2015-07-19T09:37:03Z</time>
      </trkpt>
      <trkpt lat="47.78417" lon="7.09253">
        <ele>388</ele>
        <time>2015-07-19T09:37:15Z</time>
      </trkpt>
      <trkpt lat="47.78407" lon="7.0925">
        <ele>387</ele>
        <time>2015-07-19T09:37:28Z</time>
      </trkpt>
      <trkpt lat="47.78404" lon="7.09245">
        <ele>385.1</ele>
        <time>2015-07-19T09:37:34Z</time>
      </trkpt>
      <trkpt lat="47.78395" lon="7.09245">
        <ele>382.1</ele>
        <time>2015-07-19T09:37:43Z</time>
      </trkpt>
      <trkpt lat="47.7839" lon="7.09244">
        <ele>382.1</ele>
        <time>2015-07-19T09:37:47Z</time>
      </trkpt>
      <trkpt lat="47.78376" lon="7.09239">
        <ele>371.5</ele>
        <time>2015-07-19T09:37:58Z</time>
      </trkpt>
      <trkpt lat="47.78372" lon="7.09236">
        <ele>371</ele>
        <time>2015-07-19T09:38:05Z</time>
      </trkpt>
      <trkpt lat="47.78366" lon="7.09237">
        <ele>371</ele>
        <time>2015-07-19T09:38:09Z</time>
      </trkpt>
      <trkpt lat="47.78361" lon="7.09236">
        <ele>371</ele>
        <time>2015-07-19T09:38:14Z</time>
      </trkpt>
      <trkpt lat="47.78357" lon="7.09235">
        <ele>371</ele>
        <time>2015-07-19T09:38:16Z</time>
      </trkpt>
      <trkpt lat="47.78346" lon="7.09236">
        <ele>371.8</ele>
        <time>2015-07-19T09:38:23Z</time>
      </trkpt>
      <trkpt lat="47.78333" lon="7.09233">
        <ele>375.7</ele>
        <time>2015-07-19T09:38:36Z</time>
      </trkpt>
      <trkpt lat="47.78326" lon="7.09227">
        <ele>376.9</ele>
        <time>2015-07-19T09:38:43Z</time>
      </trkpt>
      <trkpt lat="47.78321" lon="7.09225">
        <ele>380.7</ele>
        <time>2015-07-19T09:38:51Z</time>
      </trkpt>
      <trkpt lat="47.78317" lon="7.09223">
        <ele>381.9</ele>
        <time>2015-07-19T09:38:57Z</time>
      </trkpt>
      <trkpt lat="47.78312" lon="7.09221">
        <ele>381.9</ele>
        <time>2015-07-19T09:39:01Z</time>
      </trkpt>
      <trkpt lat="47.78307" lon="7.09221">
        <ele>381.9</ele>
        <time>2015-07-19T09:39:05Z</time>
      </trkpt>
      <trkpt lat="47.78302" lon="7.09219">
        <ele>382</ele>
        <time>2015-07-19T09:39:08Z</time>
      </trkpt>
      <trkpt lat="47.78296" lon="7.09218">
        <ele>382</ele>
        <time>2015-07-19T09:39:12Z</time>
      </trkpt>
      <trkpt lat="47.78294" lon="7.09225">
        <ele>382</ele>
        <time>2015-07-19T09:39:18Z</time>
      </trkpt>
      <trkpt lat="47.78297" lon="7.09232">
        <ele>382</ele>
        <time>2015-07-19T09:39:22Z</time>
      </trkpt>
      <trkpt lat="47.78288" lon="7.09247">
        <ele>381</ele>
        <time>2015-07-19T09:39:30Z</time>
      </trkpt>
      <trkpt lat="47.78285" lon="7.09256">
        <ele>381</ele>
        <time>2015-07-19T09:39:36Z</time>
      </trkpt>
      <trkpt lat="47.78283" lon="7.09269">
        <ele>381</ele>
        <time>2015-07-19T09:39:45Z</time>
      </trkpt>
      <trkpt lat="47.78282" lon="7.09277">
        <ele>381</ele>
        <time>2015-07-19T09:39:51Z</time>
      </trkpt>
      <trkpt lat="47.78281" lon="7.09285">
        <ele>381</ele>
        <time>2015-07-19T09:39:55Z</time>
      </trkpt>
      <trkpt lat="47.7828" lon="7.09293">
        <ele>381.9</ele>
        <time>2015-07-19T09:40:00Z</time>
      </trkpt>
      <trkpt lat="47.78278" lon="7.093">
        <ele>382</ele>
        <time>2015-07-19T09:40:04Z</time>
      </trkpt>
      <trkpt lat="47.78275" lon="7.09318">
        <ele>382</ele>
        <time>2015-07-19T09:40:13Z</time>
      </trkpt>
      <trkpt lat="47.7827" lon="7.09321">
        <ele>382</ele>
        <time>2015-07-19T09:40:19Z</time>
      </trkpt>
      <trkpt lat="47.78268" lon="7.09328">
        <ele>382</ele>
        <time>2015-07-19T09:40:24Z</time>
      </trkpt>
      <trkpt lat="47.78268" lon="7.09336">
        <ele>382</ele>
        <time>2015-07-19T09:40:29Z</time>
      </trkpt>
      <trkpt lat="47.78268" lon="7.09343">
        <ele>382</ele>
        <time>2015-07-19T09:40:36Z</time>
      </trkpt>
      <trkpt lat="47.7826" lon="7.0936">
        <ele>383</ele>
        <time>2015-07-19T09:40:45Z</time>
      </trkpt>
      <trkpt lat="47.78255" lon="7.0937">
        <ele>382</ele>
        <time>2015-07-19T09:40:53Z</time>
      </trkpt>
      <trkpt lat="47.78251" lon="7.09376">
        <ele>382</ele>
        <time>2015-07-19T09:40:59Z</time>
      </trkpt>
      <trkpt lat="47.78244" lon="7.09394">
        <ele>381.2</ele>
        <time>2015-07-19T09:41:12Z</time>
      </trkpt>
      <trkpt lat="47.78238" lon="7.09408">
        <ele>377.1</ele>
        <time>2015-07-19T09:41:20Z</time>
      </trkpt>
      <trkpt lat="47.78237" lon="7.09415">
        <ele>377</ele>
        <time>2015-07-19T09:41:25Z</time>
      </trkpt>
      <trkpt lat="47.78231" lon="7.09429">
        <ele>377</ele>
        <time>2015-07-19T09:41:35Z</time>
      </trkpt>
      <trkpt lat="47.78228" lon="7.09435">
        <ele>377</ele>
        <time>2015-07-19T09:41:39Z</time>
      </trkpt>
      <trkpt lat="47.78221" lon="7.09447">
        <ele>377</ele>
        <time>2015-07-19T09:41:47Z</time>
      </trkpt>
      <trkpt lat="47.78219" lon="7.09461">
        <ele>377</ele>
        <time>2015-07-19T09:42:00Z</time>
      </trkpt>
      <trkpt lat="47.78215" lon="7.09469">
        <ele>377</ele>
        <time>2015-07-19T09:42:03Z</time>
      </trkpt>
      <trkpt lat="47.78211" lon="7.09473">
        <ele>377</ele>
        <time>2015-07-19T09:42:14Z</time>
      </trkpt>
      <trkpt lat="47.78201" lon="7.0947">
        <ele>377</ele>
        <time>2015-07-19T09:42:17Z</time>
      </trkpt>
      <trkpt lat="47.78194" lon="7.09467">
        <ele>377</ele>
        <time>2015-07-19T09:42:26Z</time>
      </trkpt>
      <trkpt lat="47.7818" lon="7.09469">
        <ele>372.1</ele>
        <time>2015-07-19T09:42:41Z</time>
      </trkpt>
      <trkpt lat="47.78174" lon="7.09466">
        <ele>371</ele>
        <time>2015-07-19T09:42:45Z</time>
      </trkpt>
      <trkpt lat="47.78168" lon="7.09465">
        <ele>371</ele>
        <time>2015-07-19T09:42:49Z</time>
      </trkpt>
      <trkpt lat="47.78164" lon="7.09465">
        <ele>371</ele>
        <time>2015-07-19T09:42:53Z</time>
      </trkpt>
      <trkpt lat="47.78154" lon="7.09455">
        <ele>371</ele>
        <time>2015-07-19T09:43:03Z</time>
      </trkpt>
      <trkpt lat="47.78149" lon="7.09453">
        <ele>371</ele>
        <time>2015-07-19T09:43:15Z</time>
      </trkpt>
      <trkpt lat="47.78139" lon="7.09449">
        <ele>370</ele>
        <time>2015-07-19T09:43:26Z</time>
      </trkpt>
      <trkpt lat="47.78135" lon="7.09446">
        <ele>370</ele>
        <time>2015-07-19T09:43:30Z</time>
      </trkpt>
      <trkpt lat="47.78131" lon="7.09441">
        <ele>370</ele>
        <time>2015-07-19T09:43:35Z</time>
      </trkpt>
      <trkpt lat="47.78124" lon="7.09443">
        <ele>370</ele>
        <time>2015-07-19T09:43:39Z</time>
      </trkpt>
      <trkpt lat="47.78123" lon="7.0945">
        <ele>370</ele>
        <time>2015-07-19T09:43:43Z</time>
      </trkpt>
      <trkpt lat="47.78122" lon="7.09458">
        <ele>370</ele>
        <time>2015-07-19T09:43:46Z</time>
      </trkpt>
      <trkpt lat="47.78113" lon="7.09477">
        <ele>370</ele>
        <time>2015-07-19T09:43:53Z</time>
      </trkpt>
      <trkpt lat="47.78108" lon="7.09482">
        <ele>370</ele>
        <time>2015-07-19T09:43:58Z</time>
      </trkpt>
      <trkpt lat="47.78108" lon="7.09489">
        <ele>370</ele>
        <time>2015-07-19T09:44:03Z</time>
      </trkpt>
      <trkpt lat="47.78104" lon="7.09502">
        <ele>370</ele>
        <time>2015-07-19T09:44:10Z</time>
      </trkpt>
      <trkpt lat="47.78102" lon="7.09509">
        <ele>370.5</ele>
        <time>2015-07-19T09:44:14Z</time>
      </trkpt>
      <trkpt lat="47.78098" lon="7.09516">
        <ele>371</ele>
        <time>2015-07-19T09:44:19Z</time>
      </trkpt>
      <trkpt lat="47.78097" lon="7.09525">
        <ele>372.5</ele>
        <time>2015-07-19T09:44:26Z</time>
      </trkpt>
      <trkpt lat="47.78096" lon="7.09532">
        <ele>373</ele>
        <time>2015-07-19T09:44:31Z</time>
      </trkpt>
      <trkpt lat="47.78095" lon="7.09539">
        <ele>373</ele>
        <time>2015-07-19T09:44:34Z</time>
      </trkpt>
      <trkpt lat="47.78094" lon="7.09546">
        <ele>373</ele>
        <time>2015-07-19T09:44:39Z</time>
      </trkpt>
      <trkpt lat="47.7809" lon="7.09552">
        <ele>373</ele>
        <time>2015-07-19T09:44:46Z</time>
      </trkpt>
      <trkpt lat="47.78085" lon="7.09556">
        <ele>372.5</ele>
        <time>2015-07-19T09:44:49Z</time>
      </trkpt>
      <trkpt lat="47.78082" lon="7.09561">
        <ele>372.5</ele>
        <time>2015-07-19T09:44:53Z</time>
      </trkpt>
      <trkpt lat="47.78077" lon="7.09565">
        <ele>371.1</ele>
        <time>2015-07-19T09:44:59Z</time>
      </trkpt>
      <trkpt lat="47.78064" lon="7.09572">
        <ele>369.3</ele>
        <time>2015-07-19T09:45:08Z</time>
      </trkpt>
      <trkpt lat="47.78054" lon="7.09572">
        <ele>365</ele>
        <time>2015-07-19T09:45:18Z</time>
      </trkpt>
      <trkpt lat="47.78049" lon="7.0957">
        <ele>365</ele>
        <time>2015-07-19T09:45:22Z</time>
      </trkpt>
      <trkpt lat="47.78044" lon="7.0957">
        <ele>365</ele>
        <time>2015-07-19T09:45:28Z</time>
      </trkpt>
      <trkpt lat="47.78038" lon="7.09574">
        <ele>365</ele>
        <time>2015-07-19T09:45:34Z</time>
      </trkpt>
      <trkpt lat="47.78035" lon="7.0958">
        <ele>364.5</ele>
        <time>2015-07-19T09:45:36Z</time>
      </trkpt>
      <trkpt lat="47.78037" lon="7.09586">
        <ele>364</ele>
        <time>2015-07-19T09:45:47Z</time>
      </trkpt>
      <trkpt lat="47.78041" lon="7.0959">
        <ele>365</ele>
        <time>2015-07-19T09:45:55Z</time>
      </trkpt>
      <trkpt lat="47.78041" lon="7.09605">
        <ele>365</ele>
        <time>2015-07-19T09:46:01Z</time>
      </trkpt>
      <trkpt lat="47.78043" lon="7.09612">
        <ele>365</ele>
        <time>2015-07-19T09:46:06Z</time>
      </trkpt>
      <trkpt lat="47.78046" lon="7.09619">
        <ele>365</ele>
        <time>2015-07-19T09:46:13Z</time>
      </trkpt>
      <trkpt lat="47.78048" lon="7.09634">
        <ele>365</ele>
        <time>2015-07-19T09:46:19Z</time>
      </trkpt>
      <trkpt lat="47.78047" lon="7.09656">
        <ele>365</ele>
        <time>2015-07-19T09:46:29Z</time>
      </trkpt>
      <trkpt lat="47.78047" lon="7.09664">
        <ele>366</ele>
        <time>2015-07-19T09:46:32Z</time>
      </trkpt>
      <trkpt lat="47.78048" lon="7.09671">
        <ele>366.9</ele>
        <time>2015-07-19T09:46:37Z</time>
      </trkpt>
      <trkpt lat="47.78054" lon="7.09677">
        <ele>367.9</ele>
        <time>2015-07-19T09:46:43Z</time>
      </trkpt>
      <trkpt lat="47.78056" lon="7.09683">
        <ele>367.9</ele>
        <time>2015-07-19T09:46:45Z</time>
      </trkpt>
      <trkpt lat="47.78058" lon="7.09705">
        <ele>368</ele>
        <time>2015-07-19T09:46:50Z</time>
      </trkpt>
      <trkpt lat="47.78057" lon="7.09718">
        <ele>368</ele>
        <time>2015-07-19T09:46:55Z</time>
      </trkpt>
      <trkpt lat="47.78053" lon="7.09713">
        <ele>368</ele>
        <time>2015-07-19T09:47:09Z</time>
      </trkpt>
      <trkpt lat="47.78056" lon="7.0972">
        <ele>368</ele>
        <time>2015-07-19T09:47:14Z</time>
      </trkpt>
      <trkpt lat="47.78056" lon="7.09726">
        <ele>368</ele>
        <time>2015-07-19T09:47:16Z</time>
      </trkpt>
      <trkpt lat="47.78057" lon="7.09737">
        <ele>368</ele>
        <time>2015-07-19T09:47:22Z</time>
      </trkpt>
      <trkpt lat="47.78061" lon="7.09755">
        <ele>364</ele>
        <time>2015-07-19T09:47:42Z</time>
      </trkpt>
      <trkpt lat="47.78059" lon="7.09761">
        <ele>364</ele>
        <time>2015-07-19T09:47:52Z</time>
      </trkpt>
      <trkpt lat="47.78054" lon="7.09759">
        <ele>363.5</ele>
        <time>2015-07-19T09:47:58Z</time>
      </trkpt>
      <trkpt lat="47.78048" lon="7.09757">
        <ele>363</ele>
        <time>2015-07-19T09:48:04Z</time>
      </trkpt>
      <trkpt lat="47.78035" lon="7.09756">
        <ele>363</ele>
        <time>2015-07-19T09:48:13Z</time>
      </trkpt>
      <trkpt lat="47.78031" lon="7.09757">
        <ele>363.9</ele>
        <time>2015-07-19T09:48:18Z</time>
      </trkpt>
      <trkpt lat="47.78018" lon="7.09748">
        <ele>364</ele>
        <time>2015-07-19T09:48:28Z</time>
      </trkpt>
      <trkpt lat="47.78013" lon="7.09746">
        <ele>364</ele>
        <time>2015-07-19T09:48:33Z</time>
      </trkpt>
      <trkpt lat="47.78009" lon="7.09743">
        <ele>364</ele>
        <time>2015-07-19T09:48:38Z</time>
      </trkpt>
      <trkpt lat="47.78005" lon="7.0974">
        <ele>364</ele>
        <time>2015-07-19T09:48:40Z</time>
      </trkpt>
      <trkpt lat="47.78" lon="7.09738">
        <ele>363</ele>
        <time>2015-07-19T09:48:45Z</time>
      </trkpt>
      <trkpt lat="47.77995" lon="7.09735">
        <ele>363</ele>
        <time>2015-07-19T09:48:48Z</time>
      </trkpt>
      <trkpt lat="47.77988" lon="7.09726">
        <ele>362.5</ele>
        <time>2015-07-19T09:48:53Z</time>
      </trkpt>
      <trkpt lat="47.77982" lon="7.09727">
        <ele>362</ele>
        <time>2015-07-19T09:48:58Z</time>
      </trkpt>
      <trkpt lat="47.77978" lon="7.09728">
        <ele>361.3</ele>
        <time>2015-07-19T09:49:01Z</time>
      </trkpt>
      <trkpt lat="47.77973" lon="7.09723">
        <ele>361</ele>
        <time>2015-07-19T09:49:06Z</time>
      </trkpt>
      <trkpt lat="47.77964" lon="7.09717">
        <ele>360</ele>
        <time>2015-07-19T09:49:19Z</time>
      </trkpt>
      <trkpt lat="47.77959" lon="7.09719">
        <ele>360</ele>
        <time>2015-07-19T09:49:21Z</time>
      </trkpt>
      <trkpt lat="47.77954" lon="7.09722">
        <ele>360</ele>
        <time>2015-07-19T09:49:24Z</time>
      </trkpt>
      <trkpt lat="47.77949" lon="7.09719">
        <ele>360</ele>
        <time>2015-07-19T09:49:28Z</time>
      </trkpt>
      <trkpt lat="47.77941" lon="7.09711">
        <ele>358.1</ele>
        <time>2015-07-19T09:49:35Z</time>
      </trkpt>
      <trkpt lat="47.77939" lon="7.09704">
        <ele>357</ele>
        <time>2015-07-19T09:49:45Z</time>
      </trkpt>
      <trkpt lat="47.77933" lon="7.09702">
        <ele>357</ele>
        <time>2015-07-19T09:49:49Z</time>
      </trkpt>
      <trkpt lat="47.77924" lon="7.09697">
        <ele>357</ele>
        <time>2015-07-19T09:49:53Z</time>
      </trkpt>
      <trkpt lat="47.77919" lon="7.09694">
        <ele>356.2</ele>
        <time>2015-07-19T09:49:58Z</time>
      </trkpt>
      <trkpt lat="47.77913" lon="7.09691">
        <ele>355.1</ele>
        <time>2015-07-19T09:50:07Z</time>
      </trkpt>
      <trkpt lat="47.77911" lon="7.09683">
        <ele>354.1</ele>
        <time>2015-07-19T09:50:13Z</time>
      </trkpt>
      <trkpt lat="47.77907" lon="7.09679">
        <ele>354</ele>
        <time>2015-07-19T09:50:18Z</time>
      </trkpt>
      <trkpt lat="47.77901" lon="7.09677">
        <ele>354</ele>
        <time>2015-07-19T09:50:22Z</time>
      </trkpt>
      <trkpt lat="47.77891" lon="7.09674">
        <ele>354</ele>
        <time>2015-07-19T09:50:29Z</time>
      </trkpt>
      <trkpt lat="47.77876" lon="7.09675">
        <ele>354</ele>
        <time>2015-07-19T09:50:39Z</time>
      </trkpt>
      <trkpt lat="47.77873" lon="7.09669">
        <ele>354</ele>
        <time>2015-07-19T09:50:43Z</time>
      </trkpt>
      <trkpt lat="47.7787" lon="7.09662">
        <ele>354</ele>
        <time>2015-07-19T09:50:52Z</time>
      </trkpt>
      <trkpt lat="47.77868" lon="7.09654">
        <ele>355.2</ele>
        <time>2015-07-19T09:50:56Z</time>
      </trkpt>
      <trkpt lat="47.77868" lon="7.0964">
        <ele>356</ele>
        <time>2015-07-19T09:51:03Z</time>
      </trkpt>
      <trkpt lat="47.77864" lon="7.09637">
        <ele>356</ele>
        <time>2015-07-19T09:51:07Z</time>
      </trkpt>
      <trkpt lat="47.77859" lon="7.09635">
        <ele>356</ele>
        <time>2015-07-19T09:51:12Z</time>
      </trkpt>
      <trkpt lat="47.77855" lon="7.09631">
        <ele>356</ele>
        <time>2015-07-19T09:51:16Z</time>
      </trkpt>
      <trkpt lat="47.77853" lon="7.09621">
        <ele>354.5</ele>
        <time>2015-07-19T09:51:23Z</time>
      </trkpt>
      <trkpt lat="47.77849" lon="7.09626">
        <ele>353.1</ele>
        <time>2015-07-19T09:51:31Z</time>
      </trkpt>
      <trkpt lat="47.77853" lon="7.09627">
        <ele>350</ele>
        <time>2015-07-19T09:52:04Z</time>
      </trkpt>
      <trkpt lat="47.77857" lon="7.09632">
        <ele>349</ele>
        <time>2015-07-19T09:52:34Z</time>
      </trkpt>
      <trkpt lat="47.77853" lon="7.09627">
        <ele>349</ele>
        <time>2015-07-19T09:52:42Z</time>
      </trkpt>
      <trkpt lat="47.77855" lon="7.09632">
        <ele>349</ele>
        <time>2015-07-19T09:52:56Z</time>
      </trkpt>
      <trkpt lat="47.77854" lon="7.09626">
        <ele>349</ele>
        <time>2015-07-19T09:53:25Z</time>
      </trkpt>
      <trkpt lat="47.77854" lon="7.09626">
        <ele>355.5</ele>
        <time>2015-07-19T09:53:25Z</time>
      </trkpt>
      <trkpt lat="47.77854" lon="7.09626">
        <ele>355.5</ele>
        <time>2015-07-19T09:53:29Z</time>
      </trkpt>
    </trkseg>
  </trk>
</gpx>